Observation data for Sterling City on 05/26/2020      Previous  Date       Current Mesonet Observations  Soil Data  Daily Summary Page  Observations in Plain Language
KSC1 260500Z 31001KT 16/15 A3001 RMK A01 T01640147  RH  090%=      5-min Rain = 0
KSC1 260501Z 31001KT 16/15 A3001 RMK A01 T01640148  RH  090%=      5-min Rain = 0
KSC1 260502Z 33001KT 16/15 A3001 RMK A01 T01630148  RH  091%=      5-min Rain = 0
KSC1 260503Z 33001KT 16/15 A3001 RMK A01 T01620149  RH  092%=      5-min Rain = 0
KSC1 260504Z 33001KT 16/15 A3001 RMK A01 T01620149  RH  092%=      5-min Rain = 0
KSC1 260505Z 33001KT 16/15 A3001 RMK A01 T01600148  RH  092%=      5-min Rain = 0
KSC1 260506Z 33000KT 16/15 A3001 RMK A01 T01600150  RH  094%=      5-min Rain = 0
KSC1 260507Z 34000KT 16/15 A3001 RMK A01 T01590153  RH  096%=      5-min Rain = 0
KSC1 260508Z 34001KT 16/15 A3001 RMK A01 T01590154  RH  097%=      5-min Rain = 0
KSC1 260509Z 34001KT 16/15 A3001 RMK A01 T01580154  RH  097%=      5-min Rain = 0
KSC1 260510Z 36001KT 16/15 A3001 RMK A01 T01580154  RH  097%=      5-min Rain = 0
KSC1 260511Z 32001KT 16/15 A3001 RMK A01 T01580154  RH  097%=      5-min Rain = 0
KSC1 260512Z 33002KT 16/15 A3001 RMK A01 T01580154  RH  098%=      5-min Rain = 0
KSC1 260513Z 33003KT 16/16 A3001 RMK A01 T01580156  RH  098%=      5-min Rain = 0
KSC1 260514Z 33003KT 16/16 A3001 RMK A01 T01580156  RH  098%=      5-min Rain = 0
KSC1 260515Z 34003KT 16/15 A3001 RMK A01 T01580154  RH  098%=      5-min Rain = 0
KSC1 260516Z 34004KT 16/16 A3001 RMK A01 T01580155  RH  098%=      5-min Rain = 0
KSC1 260517Z 34003KT 16/16 A3001 RMK A01 T01590155  RH  097%=      5-min Rain = 0
KSC1 260518Z 34003KT 16/16 A3001 RMK A01 T01600155  RH  096%=      5-min Rain = 0
KSC1 260519Z 34004KT 16/15 A3001 RMK A01 T01610154  RH  096%=      5-min Rain = 0
KSC1 260520Z 35003KT 16/15 A3001 RMK A01 T01620154  RH  095%=      5-min Rain = 0
KSC1 260521Z 35003KT 16/15 A3001 RMK A01 T01620154  RH  095%=      5-min Rain = 0
KSC1 260522Z 35004KT 16/15 A3001 RMK A01 T01620154  RH  095%=      5-min Rain = 0
KSC1 260523Z 35003KT 16/15 A3001 RMK A01 T01620154  RH  095%=      5-min Rain = 0
KSC1 260524Z 35004KT 16/15 A3001 RMK A01 T01620154  RH  095%=      5-min Rain = 0
KSC1 260525Z 35004KT 16/15 A3001 RMK A01 T01620154  RH  095%=      5-min Rain = 0
KSC1 260526Z 36003KT 16/15 A3001 RMK A01 T01610154  RH  095%=      5-min Rain = 0
KSC1 260527Z 36004KT 16/15 A3001 RMK A01 T01610154  RH  096%=      5-min Rain = 0
KSC1 260528Z 36003KT 16/16 A3001 RMK A01 T01610155  RH  096%=      5-min Rain = 0
KSC1 260529Z 00003KT 16/16 A3001 RMK A01 T01610155  RH  096%=      5-min Rain = 0
KSC1 260530Z 02003KT 16/16 A3001 RMK A01 T01610155  RH  096%=      5-min Rain = 0
KSC1 260531Z 02003KT 16/15 A3001 RMK A01 T01610154  RH  096%=      5-min Rain = 0
KSC1 260532Z 02004KT 16/15 A3001 RMK A01 T01620154  RH  095%=      5-min Rain = 0
KSC1 260533Z 01004KT 16/15 A3001 RMK A01 T01620154  RH  095%=      5-min Rain = 0
KSC1 260534Z 01003KT 16/16 A3001 RMK A01 T01630155  RH  095%=      5-min Rain = 0
KSC1 260535Z 01003KT 16/15 A3001 RMK A01 T01630154  RH  095%=      5-min Rain = 0
KSC1 260536Z 01003KT 16/15 A3001 RMK A01 T01630154  RH  095%=      5-min Rain = 0
KSC1 260537Z 02002KT 16/15 A3001 RMK A01 T01630154  RH  095%=      5-min Rain = 0
KSC1 260538Z 01002KT 16/15 A3001 RMK A01 T01630154  RH  094%=      5-min Rain = 0
KSC1 260539Z 00003KT 16/15 A3001 RMK A01 T01630154  RH  094%=      5-min Rain = 0
KSC1 260540Z 36002KT 16/15 A3001 RMK A01 T01630154  RH  095%=      5-min Rain = 0
KSC1 260541Z 35002KT 16/16 A3001 RMK A01 T01630155  RH  095%=      5-min Rain = 0
KSC1 260542Z 36002KT 16/15 A30 RMK A01 T01620154  RH  095%=      5-min Rain = 0
KSC1 260543Z 34002KT 16/15 A30 RMK A01 T01620154  RH  095%=      5-min Rain = 0
KSC1 260544Z 35002KT 16/15 A30 RMK A01 T01610154  RH  096%=      5-min Rain = 0
KSC1 260545Z 34003KT 16/16 A30 RMK A01 T01610155  RH  096%=      5-min Rain = 0
KSC1 260546Z 34003KT 16/16 A30 RMK A01 T01610155  RH  097%=      5-min Rain = 0
KSC1 260547Z 35003KT 16/16 A30 RMK A01 T01600155  RH  097%=      5-min Rain = 0
KSC1 260548Z 35004KT 16/16 A30 RMK A01 T01600155  RH  097%=      5-min Rain = 0
KSC1 260549Z 35004KT 16/16 A30 RMK A01 T01600155  RH  097%=      5-min Rain = 0
KSC1 260550Z 35004KT 16/16 A30 RMK A01 T01600155  RH  097%=      5-min Rain = 0
KSC1 260551Z 34004KT 16/15 A30 RMK A01 T01600154  RH  096%=      5-min Rain = 0
KSC1 260552Z 34004KT 16/15 A30 RMK A01 T01600154  RH  096%=      5-min Rain = 0
KSC1 260553Z 35004KT 16/15 A30 RMK A01 T01600153  RH  095%=      5-min Rain = 0
KSC1 260554Z 33004KT 16/15 A30 RMK A01 T01600153  RH  095%=      5-min Rain = 0
KSC1 260555Z 34003KT 16/15 A30 RMK A01 T01610153  RH  095%=      5-min Rain = 0
KSC1 260556Z 34004KT 16/15 A30 RMK A01 T01610153  RH  095%=      5-min Rain = 0
KSC1 260557Z 34004KT 16/15 A30 RMK A01 T01620153  RH  095%=      5-min Rain = 0
KSC1 260558Z 35004KT 16/15 A30 RMK A01 T01620153  RH  094%=      5-min Rain = 0
KSC1 260559Z 34003KT 16/15 A30 RMK A01 T01620153  RH  094%=      5-min Rain = 0
KSC1 260600Z 34004KT 16/15 A30 RMK A01 T01620153  RH  094%=      5-min Rain = 0
KSC1 260601Z 34003KT 16/15 A30 RMK A01 T01620152  RH  094%=      5-min Rain = 0
KSC1 260602Z 33003KT 16/15 A30 RMK A01 T01610152  RH  094%=      5-min Rain = 0
KSC1 260603Z 33004KT 16/15 A30 RMK A01 T01610153  RH  095%=      5-min Rain = 0
KSC1 260604Z 33004KT 16/15 A30 RMK A01 T01610153  RH  095%=      5-min Rain = 0
KSC1 260605Z 34004KT 16/15 A30 RMK A01 T01620153  RH  094%=      5-min Rain = 0
KSC1 260606Z 35004KT 16/15 A30 RMK A01 T01620152  RH  094%=      5-min Rain = 0
KSC1 260607Z 33003KT 16/15 A30 RMK A01 T01620152  RH  094%=      5-min Rain = 0
KSC1 260608Z 32003KT 16/15 A30 RMK A01 T01630152  RH  093%=      5-min Rain = 0
KSC1 260609Z 31002KT 16/15 A30 RMK A01 T01630153  RH  094%=      5-min Rain = 0
KSC1 260610Z 30002KT 16/15 A30 RMK A01 T01630153  RH  094%=      5-min Rain = 0
KSC1 260611Z 33001KT 16/15 A30 RMK A01 T01620153  RH  094%=      5-min Rain = 0
KSC1 260612Z 30002KT 16/15 A30 RMK A01 T01620154  RH  095%=      5-min Rain = 0
KSC1 260613Z 29002KT 16/15 A30 RMK A01 T01620154  RH  095%=      5-min Rain = 0
KSC1 260614Z 29002KT 16/15 A30 RMK A01 T01620153  RH  095%=      5-min Rain = 0
KSC1 260615Z 28002KT 16/15 A30 RMK A01 T01610154  RH  095%=      5-min Rain = 0
KSC1 260616Z 29003KT 16/15 A30 RMK A01 T01600154  RH  096%=      5-min Rain = 0
KSC1 260617Z 30003KT 16/16 A30 RMK A01 T01600155  RH  097%=      5-min Rain = 0
KSC1 260618Z 30003KT 16/16 A30 RMK A01 T01590155  RH  098%=      5-min Rain = 0
KSC1 260619Z 31003KT 16/16 A30 RMK A01 T01580156  RH  099%=      5-min Rain = 0
KSC1 260620Z 30004KT 16/16 A30 RMK A01 T01570157  RH  099%=      5-min Rain = 0
KSC1 260621Z 30004KT 16/16 A30 RMK A01 T01570156  RH  099%=      5-min Rain = 0
KSC1 260622Z 30005KT 16/16 A30 RMK A01 T01550155  RH  100%=      5-min Rain = 0
KSC1 260623Z 30005KT 16/16 A30 RMK A01 T01550155  RH  100%=      5-min Rain = 0
KSC1 260624Z 30005KT 15/16 A3001 RMK A01 T01540155  RH  100%=      5-min Rain = 0
KSC1 260625Z 30005KT 15/15 A3001 RMK A01 T01540154  RH  100%=      5-min Rain = 0
KSC1 260626Z 30005KT 15/15 A3001 RMK A01 T01540154  RH  100%=      5-min Rain = 0
KSC1 260627Z 31005KT 15/15 A3001 RMK A01 T01540154  RH  100%=      5-min Rain = 0
KSC1 260628Z 31004KT 15/15 A3001 RMK A01 T01540154  RH  100%=      5-min Rain = 0
KSC1 260629Z 30005KT 15/15 A3001 RMK A01 T01540154  RH  100%=      5-min Rain = 0
KSC1 260630Z 30004KT 15/15 A3001 RMK A01 T01540154  RH  100%=      5-min Rain = 0
KSC1 260631Z 30004KT 15/15 A3001 RMK A01 T01540154  RH  100%=      5-min Rain = 0
KSC1 260632Z 30003KT 15/15 A3001 RMK A01 T01540154  RH  100%=      5-min Rain = 0
KSC1 260633Z 30003KT 15/15 A3001 RMK A01 T01540154  RH  100%=      5-min Rain = 0
KSC1 260634Z 30003KT 15/15 A30 RMK A01 T01540154  RH  100%=      5-min Rain = 0
KSC1 260635Z 30003KT 15/15 A30 RMK A01 T01540154  RH  100%=      5-min Rain = 0
KSC1 260636Z 30003KT 15/15 A30 RMK A01 T01530154  RH  100%=      5-min Rain = 0
KSC1 260637Z 29003KT 15/15 A30 RMK A01 T01530153  RH  100%=      5-min Rain = 0
KSC1 260638Z 28003KT 15/15 A3001 RMK A01 T01520153  RH  100%=      5-min Rain = 0
KSC1 260639Z 28003KT 15/15 A3001 RMK A01 T01520152  RH  100%=      5-min Rain = 0
KSC1 260640Z 28003KT 15/15 A3001 RMK A01 T01520152  RH  100%=      5-min Rain = 0
KSC1 260641Z 28003KT 15/15 A3001 RMK A01 T01510151  RH  100%=      5-min Rain = 0
KSC1 260642Z 28003KT 15/15 A3001 RMK A01 T01510151  RH  100%=      5-min Rain = 0
KSC1 260643Z 28004KT 15/15 A3001 RMK A01 T01500150  RH  100%=      5-min Rain = 0
KSC1 260644Z 28004KT 15/15 A3001 RMK A01 T01490149  RH  100%=      5-min Rain = 0
KSC1 260645Z 28004KT 15/15 A3001 RMK A01 T01490149  RH  100%=      5-min Rain = 0
KSC1 260646Z 28004KT 15/15 A3001 RMK A01 T01490149  RH  100%=      5-min Rain = 0
KSC1 260647Z 29004KT 15/15 A3001 RMK A01 T01490149  RH  100%=      5-min Rain = 0
KSC1 260648Z 29004KT 15/15 A3001 RMK A01 T01480149  RH  100%=      5-min Rain = 0
KSC1 260649Z 29004KT 15/15 A3001 RMK A01 T01480148  RH  100%=      5-min Rain = 0
KSC1 260650Z 29004KT 15/15 A3001 RMK A01 T01480148  RH  100%=      5-min Rain = 0
KSC1 260651Z 29004KT 15/15 A3001 RMK A01 T01480148  RH  100%=      5-min Rain = 0
KSC1 260652Z 30004KT 15/15 A3001 RMK A01 T01470148  RH  100%=      5-min Rain = 0
KSC1 260653Z 29004KT 15/15 A3001 RMK A01 T01470148  RH  100%=      5-min Rain = 0
KSC1 260654Z 30003KT 15/15 A3001 RMK A01 T01470147  RH  100%=      5-min Rain = 0
KSC1 260655Z 31003KT 15/15 A3001 RMK A01 T01470147  RH  100%=      5-min Rain = 0
KSC1 260656Z 31003KT 15/15 A3001 RMK A01 T01470147  RH  100%=      5-min Rain = 0
KSC1 260657Z 31003KT 15/15 A3001 RMK A01 T01480148  RH  100%=      5-min Rain = 0
KSC1 260658Z 31003KT 15/15 A3001 RMK A01 T01480148  RH  100%=      5-min Rain = 0
KSC1 260659Z 31003KT 15/15 A3001 RMK A01 T01480148  RH  100%=      5-min Rain = 0
KSC1 260700Z 31002KT 15/15 A3001 RMK A01 T01490149  RH  100%=      5-min Rain = 0
KSC1 260701Z 31002KT 15/15 A3001 RMK A01 T01490149  RH  100%=      5-min Rain = 0
KSC1 260702Z 31002KT 15/15 A3001 RMK A01 T01490149  RH  100%=      5-min Rain = 0
KSC1 260703Z 32002KT 15/15 A3001 RMK A01 T01490149  RH  100%=      5-min Rain = 0
KSC1 260704Z 32002KT 15/15 A3001 RMK A01 T01490149  RH  100%=      5-min Rain = 0
KSC1 260705Z 32001KT 15/15 A3001 RMK A01 T01490149  RH  100%=      5-min Rain = 0
KSC1 260706Z 34002KT 15/15 A3001 RMK A01 T01490149  RH  100%=      5-min Rain = 0
KSC1 260707Z 35001KT 15/15 A3001 RMK A01 T01500150  RH  100%=      5-min Rain = 0
KSC1 260708Z 02002KT 15/15 A3001 RMK A01 T01500150  RH  100%=      5-min Rain = 0
KSC1 260709Z 02002KT 15/15 A3001 RMK A01 T01510151  RH  100%=      5-min Rain = 0
KSC1 260710Z 00002KT 15/15 A3001 RMK A01 T01520152  RH  100%=      5-min Rain = 0
KSC1 260711Z 01003KT 15/15 A3001 RMK A01 T01530153  RH  100%=      5-min Rain = 0
KSC1 260712Z 35004KT 15/15 A3001 RMK A01 T01540154  RH  100%=      5-min Rain = 0
KSC1 260713Z 35004KT 15/16 A3001 RMK A01 T01540155  RH  100%=      5-min Rain = 0
KSC1 260714Z 34004KT 16/16 A3001 RMK A01 T01550155  RH  100%=      5-min Rain = 0
KSC1 260715Z 35004KT 16/16 A3001 RMK A01 T01560156  RH  100%=      5-min Rain = 0
KSC1 260716Z 35002KT 16/16 A3001 RMK A01 T01570157  RH  100%=      5-min Rain = 0
KSC1 260717Z 00002KT 16/16 A3001 RMK A01 T01570157  RH  100%=      5-min Rain = 0
KSC1 260718Z 36002KT 16/16 A3001 RMK A01 T01570157  RH  100%=      5-min Rain = 0
KSC1 260719Z 34003KT 16/16 A3001 RMK A01 T01570157  RH  100%=      5-min Rain = 0
KSC1 260720Z 34003KT 16/16 A3001 RMK A01 T01570157  RH  100%=      5-min Rain = 0
KSC1 260721Z 34003KT 16/16 A3001 RMK A01 T01570157  RH  100%=      5-min Rain = 0
KSC1 260722Z 35003KT 16/16 A3001 RMK A01 T01570158  RH  100%=      5-min Rain = 0
KSC1 260723Z 02002KT 16/16 A3001 RMK A01 T01580158  RH  100%=      5-min Rain = 0
KSC1 260724Z 36002KT 16/16 A3001 RMK A01 T01570157  RH  100%=      5-min Rain = 0
KSC1 260725Z 01002KT 16/16 A3001 RMK A01 T01580158  RH  100%=      5-min Rain = 0
KSC1 260726Z 34002KT 16/16 A3001 RMK A01 T01580158  RH  100%=      5-min Rain = 0
KSC1 260727Z 33002KT 16/16 A3001 RMK A01 T01580158  RH  100%=      5-min Rain = 0
KSC1 260728Z 34002KT 16/16 A3001 RMK A01 T01580158  RH  100%=      5-min Rain = 0
KSC1 260729Z 32003KT 16/16 A3001 RMK A01 T01580158  RH  100%=      5-min Rain = 0
KSC1 260730Z 32003KT 16/16 A3001 RMK A01 T01590159  RH  100%=      5-min Rain = 0
KSC1 260731Z 31003KT 16/16 A3001 RMK A01 T01590159  RH  100%=      5-min Rain = 0
KSC1 260732Z 32002KT 16/16 A3001 RMK A01 T01590159  RH  100%=      5-min Rain = 0
KSC1 260733Z 32002KT 16/16 A3001 RMK A01 T01600160  RH  100%=      5-min Rain = 0
KSC1 260734Z 31000KT 16/16 A3001 RMK A01 T01600160  RH  100%=      5-min Rain = 0
KSC1 260735Z 00000KT 16/16 A3001 RMK A01 T01600160  RH  100%=      5-min Rain = 0
KSC1 260736Z 00000KT 16/16 A3001 RMK A01 T01600160  RH  100%=      5-min Rain = 0
KSC1 260737Z 34000KT 16/16 A3001 RMK A01 T01600160  RH  100%=      5-min Rain = 0
KSC1 260738Z 01000KT 16/16 A3001 RMK A01 T01600160  RH  100%=      5-min Rain = 0
KSC1 260739Z 01000KT 16/16 A3001 RMK A01 T01600160  RH  100%=      5-min Rain = 0
KSC1 260740Z 36001KT 16/16 A3001 RMK A01 T01590159  RH  100%=      5-min Rain = 0
KSC1 260741Z 35000KT 16/16 A3001 RMK A01 T01590159  RH  100%=      5-min Rain = 0
KSC1 260742Z 00000KT 16/16 A3001 RMK A01 T01590159  RH  100%=      5-min Rain = 0
KSC1 260743Z 36000KT 16/16 A3001 RMK A01 T01580158  RH  100%=      5-min Rain = 0
KSC1 260744Z 35001KT 16/16 A3001 RMK A01 T01580158  RH  100%=      5-min Rain = 0
KSC1 260745Z 35001KT 16/16 A3001 RMK A01 T01570157  RH  100%=      5-min Rain = 0
KSC1 260746Z 35001KT 16/16 A3001 RMK A01 T01580158  RH  100%=      5-min Rain = 0
KSC1 260747Z 33001KT 16/16 A3001 RMK A01 T01580158  RH  100%=      5-min Rain = 0
KSC1 260748Z 34001KT 16/16 A3001 RMK A01 T01580158  RH  100%=      5-min Rain = 0
KSC1 260749Z 33001KT 16/16 A3001 RMK A01 T01580158  RH  100%=      5-min Rain = 0
KSC1 260750Z 34000KT 16/16 A3001 RMK A01 T01580158  RH  100%=      5-min Rain = 0
KSC1 260751Z 34000KT 16/16 A3001 RMK A01 T01580158  RH  100%=      5-min Rain = 0
KSC1 260752Z 35001KT 16/16 A3001 RMK A01 T01580158  RH  100%=      5-min Rain = 0
KSC1 260753Z 36001KT 16/16 A3001 RMK A01 T01580158  RH  100%=      5-min Rain = 0
KSC1 260754Z 35001KT 16/16 A3001 RMK A01 T01580158  RH  100%=      5-min Rain = 0
KSC1 260755Z 01002KT 16/16 A30 RMK A01 T01580158  RH  100%=      5-min Rain = 0
KSC1 260756Z 01002KT 16/16 A30 RMK A01 T01580158  RH  100%=      5-min Rain = 0
KSC1 260757Z 01002KT 16/16 A30 RMK A01 T01580158  RH  100%=      5-min Rain = 0
KSC1 260758Z 00001KT 16/16 A30 RMK A01 T01580158  RH  100%=      5-min Rain = 0
KSC1 260759Z 36001KT 16/16 A30 RMK A01 T01570157  RH  100%=      5-min Rain = 0
KSC1 260800Z 35001KT 16/16 A30 RMK A01 T01570157  RH  100%=      5-min Rain = 0
KSC1 260801Z 33001KT 16/16 A30 RMK A01 T01570157  RH  100%=      5-min Rain = 0
KSC1 260802Z 32001KT 16/16 A30 RMK A01 T01570157  RH  100%=      5-min Rain = 0
KSC1 260803Z 32002KT 16/16 A30 RMK A01 T01560156  RH  100%=      5-min Rain = 0
KSC1 260804Z 32002KT 16/16 A30 RMK A01 T01560156  RH  100%=      5-min Rain = 0
KSC1 260805Z 32002KT 16/16 A30 RMK A01 T01550155  RH  100%=      5-min Rain = 0
KSC1 260806Z 32002KT 16/16 A30 RMK A01 T01550155  RH  100%=      5-min Rain = 0
KSC1 260807Z 32002KT 16/16 A30 RMK A01 T01550155  RH  100%=      5-min Rain = 0
KSC1 260808Z 34002KT 16/16 A30 RMK A01 T01550155  RH  100%=      5-min Rain = 0
KSC1 260809Z 33002KT 16/16 A30 RMK A01 T01550155  RH  100%=      5-min Rain = 0
KSC1 260810Z 33002KT 16/16 A30 RMK A01 T01550155  RH  100%=      5-min Rain = 0
KSC1 260811Z 33002KT 16/16 A30 RMK A01 T01550155  RH  100%=      5-min Rain = 0
KSC1 260812Z 33002KT 16/16 A30 RMK A01 T01550155  RH  100%=      5-min Rain = 0
KSC1 260813Z 32002KT 16/16 A30 RMK A01 T01550155  RH  100%=      5-min Rain = 0
KSC1 260814Z 31002KT 16/16 A3001 RMK A01 T01550155  RH  100%=      5-min Rain = 0
KSC1 260815Z 30002KT 15/15 A3001 RMK A01 T01540154  RH  100%=      5-min Rain = 0
KSC1 260816Z 29002KT 15/15 A3001 RMK A01 T01530153  RH  100%=      5-min Rain = 0
KSC1 260817Z 28002KT 15/15 A3001 RMK A01 T01530153  RH  100%=      5-min Rain = 0
KSC1 260818Z 27002KT 15/15 A3001 RMK A01 T01520152  RH  100%=      5-min Rain = 0
KSC1 260819Z 26002KT 15/15 A3001 RMK A01 T01510151  RH  100%=      5-min Rain = 0
KSC1 260820Z 25002KT 15/15 A30 RMK A01 T01510151  RH  100%=      5-min Rain = 0
KSC1 260821Z 25002KT 15/15 A30 RMK A01 T01510151  RH  100%=      5-min Rain = 0
KSC1 260822Z 26001KT 15/15 A30 RMK A01 T01510151  RH  100%=      5-min Rain = 0
KSC1 260823Z 26001KT 15/15 A30 RMK A01 T01500150  RH  100%=      5-min Rain = 0
KSC1 260824Z 25001KT 15/15 A30 RMK A01 T01490150  RH  100%=      5-min Rain = 0
KSC1 260825Z 24001KT 15/15 A30 RMK A01 T01490149  RH  100%=      5-min Rain = 0
KSC1 260826Z 24001KT 15/15 A30 RMK A01 T01480148  RH  100%=      5-min Rain = 0
KSC1 260827Z 22001KT 15/15 A30 RMK A01 T01460146  RH  100%=      5-min Rain = 0
KSC1 260828Z 21001KT 15/15 A3001 RMK A01 T01450145  RH  100%=      5-min Rain = 0
KSC1 260829Z 23001KT 14/14 A3001 RMK A01 T01440144  RH  100%=      5-min Rain = 0
KSC1 260830Z 26001KT 14/14 A3001 RMK A01 T01430143  RH  100%=      5-min Rain = 0
KSC1 260831Z 27001KT 14/14 A3001 RMK A01 T01420142  RH  100%=      5-min Rain = 0
KSC1 260832Z 27001KT 14/14 A3001 RMK A01 T01420142  RH  100%=      5-min Rain = 0
KSC1 260833Z 27001KT 14/14 A3001 RMK A01 T01410141  RH  100%=      5-min Rain = 0
KSC1 260834Z 27001KT 14/14 A3001 RMK A01 T01410142  RH  100%=      5-min Rain = 0
KSC1 260835Z 26002KT 14/14 A3001 RMK A01 T01410141  RH  100%=      5-min Rain = 0
KSC1 260836Z 25001KT 14/14 A3001 RMK A01 T01400140  RH  100%=      5-min Rain = 0
KSC1 260837Z 25001KT 14/14 A3001 RMK A01 T01390140  RH  100%=      5-min Rain = 0
KSC1 260838Z 26001KT 14/14 A3001 RMK A01 T01400140  RH  100%=      5-min Rain = 0
KSC1 260839Z 26001KT 14/14 A3001 RMK A01 T01390139  RH  100%=      5-min Rain = 0
KSC1 260840Z 26001KT 14/14 A3001 RMK A01 T01390139  RH  100%=      5-min Rain = 0
KSC1 260841Z 29001KT 14/14 A3001 RMK A01 T01380138  RH  100%=      5-min Rain = 0
KSC1 260842Z 30001KT 14/14 A3001 RMK A01 T01370137  RH  100%=      5-min Rain = 0
KSC1 260843Z 31002KT 14/14 A3001 RMK A01 T01360136  RH  100%=      5-min Rain = 0
KSC1 260844Z 31002KT 14/14 A3001 RMK A01 T01360136  RH  100%=      5-min Rain = 0
KSC1 260845Z 31002KT 14/14 A3001 RMK A01 T01360136  RH  100%=      5-min Rain = 0
KSC1 260846Z 30002KT 14/14 A3001 RMK A01 T01360136  RH  100%=      5-min Rain = 0
KSC1 260847Z 30001KT 14/14 A3001 RMK A01 T01350136  RH  100%=      5-min Rain = 0
KSC1 260848Z 29001KT 14/14 A3001 RMK A01 T01360136  RH  100%=      5-min Rain = 0
KSC1 260849Z 29002KT 14/14 A3001 RMK A01 T01370137  RH  100%=      5-min Rain = 0
KSC1 260850Z 27002KT 14/14 A3001 RMK A01 T01370137  RH  100%=      5-min Rain = 0
KSC1 260851Z 27002KT 14/14 A3001 RMK A01 T01360136  RH  100%=      5-min Rain = 0
KSC1 260852Z 28002KT 14/14 A3001 RMK A01 T01350135  RH  100%=      5-min Rain = 0
KSC1 260853Z 28002KT 13/13 A3001 RMK A01 T01340134  RH  100%=      5-min Rain = 0
KSC1 260854Z 28003KT 13/13 A3001 RMK A01 T01340134  RH  100%=      5-min Rain = 0
KSC1 260855Z 28003KT 13/13 A3001 RMK A01 T01340134  RH  100%=      5-min Rain = 0
KSC1 260856Z 28003KT 13/13 A3001 RMK A01 T01340134  RH  100%=      5-min Rain = 0
KSC1 260857Z 28003KT 13/13 A3001 RMK A01 T01330133  RH  100%=      5-min Rain = 0
KSC1 260858Z 28003KT 13/13 A3001 RMK A01 T01330133  RH  100%=      5-min Rain = 0
KSC1 260859Z 28003KT 13/13 A3001 RMK A01 T01330133  RH  100%=      5-min Rain = 0
KSC1 260900Z 28003KT 13/13 A3001 RMK A01 T01340134  RH  100%=      5-min Rain = 0
KSC1 260901Z 28003KT 13/13 A3001 RMK A01 T01340134  RH  100%=      5-min Rain = 0
KSC1 260902Z 29003KT 13/13 A3001 RMK A01 T01340134  RH  100%=      5-min Rain = 0
KSC1 260903Z 29003KT 13/13 A3001 RMK A01 T01340134  RH  100%=      5-min Rain = 0
KSC1 260904Z 29003KT 13/13 A3001 RMK A01 T01340134  RH  100%=      5-min Rain = 0
KSC1 260905Z 30003KT 13/13 A3001 RMK A01 T01340134  RH  100%=      5-min Rain = 0
KSC1 260906Z 30003KT 13/13 A3001 RMK A01 T01340134  RH  100%=      5-min Rain = 0
KSC1 260907Z 29002KT 13/13 A3001 RMK A01 T01340134  RH  100%=      5-min Rain = 0
KSC1 260908Z 29003KT 13/13 A3001 RMK A01 T01340134  RH  100%=      5-min Rain = 0
KSC1 260909Z 30003KT 13/13 A3002 RMK A01 T01340134  RH  100%=      5-min Rain = 0
KSC1 260910Z 30003KT 13/13 A3002 RMK A01 T01340134  RH  100%=      5-min Rain = 0
KSC1 260911Z 29003KT 13/13 A3002 RMK A01 T01340134  RH  100%=      5-min Rain = 0
KSC1 260912Z 30003KT 13/13 A3002 RMK A01 T01340134  RH  100%=      5-min Rain = 0
KSC1 260913Z 30003KT 13/14 A3002 RMK A01 T01340135  RH  100%=      5-min Rain = 0
KSC1 260914Z 30003KT 13/13 A3002 RMK A01 T01340134  RH  100%=      5-min Rain = 0
KSC1 260915Z 30002KT 14/14 A3002 RMK A01 T01350135  RH  100%=      5-min Rain = 0
KSC1 260916Z 30002KT 14/14 A3002 RMK A01 T01350135  RH  100%=      5-min Rain = 0
KSC1 260917Z 31003KT 14/14 A3002 RMK A01 T01350135  RH  100%=      5-min Rain = 0
KSC1 260918Z 31003KT 14/14 A3002 RMK A01 T01350135  RH  100%=      5-min Rain = 0
KSC1 260919Z 30002KT 14/14 A3002 RMK A01 T01360136  RH  100%=      5-min Rain = 0
KSC1 260920Z 29001KT 14/14 A3002 RMK A01 T01360136  RH  100%=      5-min Rain = 0
KSC1 260921Z 28001KT 14/14 A3002 RMK A01 T01370137  RH  100%=      5-min Rain = 0
KSC1 260922Z 27001KT 14/14 A3002 RMK A01 T01370137  RH  100%=      5-min Rain = 0
KSC1 260923Z 27001KT 14/14 A3002 RMK A01 T01360136  RH  100%=      5-min Rain = 0
KSC1 260924Z 26001KT 14/14 A3002 RMK A01 T01350135  RH  100%=      5-min Rain = 0
KSC1 260925Z 22001KT 13/13 A3002 RMK A01 T01330133  RH  100%=      5-min Rain = 0
KSC1 260926Z 19002KT 13/13 A3002 RMK A01 T01310131  RH  100%=      5-min Rain = 0
KSC1 260927Z 18002KT 13/13 A3002 RMK A01 T01310131  RH  100%=      5-min Rain = 0
KSC1 260928Z 18002KT 13/13 A3002 RMK A01 T01300130  RH  100%=      5-min Rain = 0
KSC1 260929Z 18003KT 13/13 A3002 RMK A01 T01300130  RH  100%=      5-min Rain = 0
KSC1 260930Z 18003KT 13/13 A3002 RMK A01 T01290129  RH  100%=      5-min Rain = 0
KSC1 260931Z 17003KT 13/13 A3002 RMK A01 T01280128  RH  100%=      5-min Rain = 0
KSC1 260932Z 17003KT 13/13 A3002 RMK A01 T01280128  RH  100%=      5-min Rain = 0
KSC1 260933Z 17003KT 13/13 A3002 RMK A01 T01280128  RH  100%=      5-min Rain = 0
KSC1 260934Z 17003KT 13/13 A3002 RMK A01 T01280128  RH  100%=      5-min Rain = 0
KSC1 260935Z 17003KT 13/13 A3002 RMK A01 T01280128  RH  100%=      5-min Rain = 0
KSC1 260936Z 17002KT 13/13 A3002 RMK A01 T01280128  RH  100%=      5-min Rain = 0
KSC1 260937Z 17002KT 13/13 A3002 RMK A01 T01290129  RH  100%=      5-min Rain = 0
KSC1 260938Z 17002KT 13/13 A3002 RMK A01 T01290129  RH  100%=      5-min Rain = 0
KSC1 260939Z 17002KT 13/13 A3002 RMK A01 T01290129  RH  100%=      5-min Rain = 0
KSC1 260940Z 18002KT 13/13 A3002 RMK A01 T01300130  RH  100%=      5-min Rain = 0
KSC1 260941Z 20001KT 13/13 A3002 RMK A01 T01310131  RH  100%=      5-min Rain = 0
KSC1 260942Z 20001KT 13/13 A3002 RMK A01 T01320132  RH  100%=      5-min Rain = 0
KSC1 260943Z 20002KT 13/13 A3002 RMK A01 T01330133  RH  100%=      5-min Rain = 0
KSC1 260944Z 21002KT 13/13 A3002 RMK A01 T01320132  RH  100%=      5-min Rain = 0
KSC1 260945Z 22002KT 13/13 A3002 RMK A01 T01320132  RH  100%=      5-min Rain = 0
KSC1 260946Z 22003KT 13/13 A3002 RMK A01 T01330133  RH  100%=      5-min Rain = 0
KSC1 260947Z 23003KT 13/13 A3002 RMK A01 T01320132  RH  100%=      5-min Rain = 0
KSC1 260948Z 24003KT 13/13 A3002 RMK A01 T01290129  RH  100%=      5-min Rain = 0
KSC1 260949Z 24003KT 13/13 A3002 RMK A01 T01290129  RH  100%=      5-min Rain = 0
KSC1 260950Z 25003KT 13/13 A3002 RMK A01 T01280128  RH  100%=      5-min Rain = 0
KSC1 260951Z 25003KT 13/13 A3002 RMK A01 T01270127  RH  100%=      5-min Rain = 0
KSC1 260952Z 26003KT 13/13 A3002 RMK A01 T01270127  RH  100%=      5-min Rain = 0
KSC1 260953Z 26004KT 13/13 A3002 RMK A01 T01290129  RH  100%=      5-min Rain = 0
KSC1 260954Z 26003KT 13/13 A3002 RMK A01 T01290129  RH  100%=      5-min Rain = 0
KSC1 260955Z 27003KT 13/13 A3002 RMK A01 T01290129  RH  100%=      5-min Rain = 0
KSC1 260956Z 27003KT 13/13 A3002 RMK A01 T01290129  RH  100%=      5-min Rain = 0
KSC1 260957Z 27003KT 13/13 A3003 RMK A01 T01300130  RH  100%=      5-min Rain = 0
KSC1 260958Z 28003KT 13/13 A3003 RMK A01 T01310131  RH  100%=      5-min Rain = 0
KSC1 260959Z 28003KT 13/13 A3003 RMK A01 T01310131  RH  100%=      5-min Rain = 0
KSC1 261000Z 28003KT 13/13 A3003 RMK A01 T01300131  RH  100%=      5-min Rain = 0
KSC1 261001Z 28003KT 13/13 A3003 RMK A01 T01310131  RH  100%=      5-min Rain = 0
KSC1 261002Z 28002KT 13/13 A3003 RMK A01 T01310131  RH  100%=      5-min Rain = 0
KSC1 261003Z 27002KT 13/13 A3003 RMK A01 T01310131  RH  100%=      5-min Rain = 0
KSC1 261004Z 28003KT 13/13 A3003 RMK A01 T01310131  RH  100%=      5-min Rain = 0
KSC1 261005Z 28002KT 13/13 A3003 RMK A01 T01310131  RH  100%=      5-min Rain = 0
KSC1 261006Z 28002KT 13/13 A3003 RMK A01 T01310131  RH  100%=      5-min Rain = 0
KSC1 261007Z 30003KT 13/13 A3003 RMK A01 T01300130  RH  100%=      5-min Rain = 0
KSC1 261008Z 28003KT 13/13 A3003 RMK A01 T01300130  RH  100%=      5-min Rain = 0
KSC1 261009Z 27002KT 13/13 A3003 RMK A01 T01310131  RH  100%=      5-min Rain = 0
KSC1 261010Z 27002KT 13/13 A3003 RMK A01 T01300130  RH  100%=      5-min Rain = 0
KSC1 261011Z 26002KT 13/13 A3003 RMK A01 T01300130  RH  100%=      5-min Rain = 0
KSC1 261012Z 26002KT 13/13 A3003 RMK A01 T01290129  RH  100%=      5-min Rain = 0
KSC1 261013Z 26002KT 13/13 A3003 RMK A01 T01280128  RH  100%=      5-min Rain = 0
KSC1 261014Z 26002KT 13/13 A3004 RMK A01 T01250125  RH  100%=      5-min Rain = 0
KSC1 261015Z 26002KT 12/12 A3004 RMK A01 T01230124  RH  100%=      5-min Rain = 0
KSC1 261016Z 26002KT 12/12 A3004 RMK A01 T01220122  RH  100%=      5-min Rain = 0
KSC1 261017Z 26002KT 12/12 A3004 RMK A01 T01220122  RH  100%=      5-min Rain = 0
KSC1 261018Z 26002KT 12/12 A3004 RMK A01 T01210121  RH  100%=      5-min Rain = 0
KSC1 261019Z 25003KT 12/12 A3004 RMK A01 T01210121  RH  100%=      5-min Rain = 0
KSC1 261020Z 25002KT 12/12 A3004 RMK A01 T01220122  RH  100%=      5-min Rain = 0
KSC1 261021Z 25003KT 12/12 A3004 RMK A01 T01220122  RH  100%=      5-min Rain = 0
KSC1 261022Z 25003KT 12/12 A3004 RMK A01 T01230123  RH  100%=      5-min Rain = 0
KSC1 261023Z 25002KT 12/12 A3004 RMK A01 T01220122  RH  100%=      5-min Rain = 0
KSC1 261024Z 25002KT 12/12 A3004 RMK A01 T01210121  RH  100%=      5-min Rain = 0
KSC1 261025Z 25003KT 12/12 A3004 RMK A01 T01210121  RH  100%=      5-min Rain = 0
KSC1 261026Z 26002KT 12/12 A3004 RMK A01 T01210121  RH  100%=      5-min Rain = 0
KSC1 261027Z 25002KT 12/12 A3004 RMK A01 T01210121  RH  100%=      5-min Rain = 0
KSC1 261028Z 26002KT 12/12 A3004 RMK A01 T01200120  RH  100%=      5-min Rain = 0
KSC1 261029Z 26002KT 12/12 A3004 RMK A01 T01200120  RH  100%=      5-min Rain = 0
KSC1 261030Z 26002KT 12/12 A3004 RMK A01 T01190119  RH  100%=      5-min Rain = 0
KSC1 261031Z 27001KT 12/12 A3004 RMK A01 T01180118  RH  100%=      5-min Rain = 0
KSC1 261032Z 27001KT 12/12 A3004 RMK A01 T01180118  RH  100%=      5-min Rain = 0
KSC1 261033Z 27001KT 12/12 A3004 RMK A01 T01170117  RH  100%=      5-min Rain = 0
KSC1 261034Z 27001KT 12/12 A3004 RMK A01 T01170117  RH  100%=      5-min Rain = 0
KSC1 261035Z 27001KT 12/12 A3004 RMK A01 T01160116  RH  100%=      5-min Rain = 0
KSC1 261036Z 27001KT 12/12 A3004 RMK A01 T01160116  RH  100%=      5-min Rain = 0
KSC1 261037Z 26001KT 12/12 A3004 RMK A01 T01150116  RH  100%=      5-min Rain = 0
KSC1 261038Z 26001KT 12/12 A3004 RMK A01 T01150115  RH  100%=      5-min Rain = 0
KSC1 261039Z 26001KT 11/11 A3004 RMK A01 T01140114  RH  100%=      5-min Rain = 0
KSC1 261040Z 26001KT 11/11 A3004 RMK A01 T01130113  RH  100%=      5-min Rain = 0
KSC1 261041Z 26000KT 11/11 A3004 RMK A01 T01130113  RH  100%=      5-min Rain = 0
KSC1 261042Z 00000KT 11/11 A3004 RMK A01 T01130113  RH  100%=      5-min Rain = 0
KSC1 261043Z 26000KT 11/11 A3004 RMK A01 T01120112  RH  100%=      5-min Rain = 0
KSC1 261044Z 26001KT 11/11 A3004 RMK A01 T01120112  RH  100%=      5-min Rain = 0
KSC1 261045Z 26001KT 11/11 A3004 RMK A01 T01120112  RH  100%=      5-min Rain = 0
KSC1 261046Z 25001KT 11/11 A3004 RMK A01 T01120112  RH  100%=      5-min Rain = 0
KSC1 261047Z 25001KT 11/11 A3004 RMK A01 T01120112  RH  100%=      5-min Rain = 0
KSC1 261048Z 25002KT 11/11 A3004 RMK A01 T01120112  RH  100%=      5-min Rain = 0
KSC1 261049Z 26002KT 11/11 A3004 RMK A01 T01120112  RH  100%=      5-min Rain = 0
KSC1 261050Z 27002KT 11/11 A3004 RMK A01 T01120112  RH  100%=      5-min Rain = 0
KSC1 261051Z 28002KT 11/11 A3004 RMK A01 T01120112  RH  100%=      5-min Rain = 0
KSC1 261052Z 28002KT 11/11 A3004 RMK A01 T01120112  RH  100%=      5-min Rain = 0
KSC1 261053Z 29002KT 11/11 A3004 RMK A01 T01120112  RH  100%=      5-min Rain = 0
KSC1 261054Z 28002KT 11/11 A3004 RMK A01 T01110111  RH  100%=      5-min Rain = 0
KSC1 261055Z 29002KT 11/11 A3004 RMK A01 T01110111  RH  100%=      5-min Rain = 0
KSC1 261056Z 29002KT 11/11 A3004 RMK A01 T01120112  RH  100%=      5-min Rain = 0
KSC1 261057Z 29002KT 11/11 A3004 RMK A01 T01120112  RH  100%=      5-min Rain = 0
KSC1 261058Z 29002KT 11/11 A3004 RMK A01 T01120112  RH  100%=      5-min Rain = 0
KSC1 261059Z 29002KT 11/11 A3004 RMK A01 T01120112  RH  100%=      5-min Rain = 0
KSC1 261100Z 29002KT 11/11 A3004 RMK A01 T01110111  RH  100%=      5-min Rain = 0
KSC1 261101Z 30002KT 11/11 A3004 RMK A01 T01110111  RH  100%=      5-min Rain = 0
KSC1 261102Z 29002KT 11/11 A3004 RMK A01 T01130113  RH  100%=      5-min Rain = 0
KSC1 261103Z 30002KT 11/11 A3004 RMK A01 T01140114  RH  100%=      5-min Rain = 0
KSC1 261104Z 29002KT 11/11 A3004 RMK A01 T01140114  RH  100%=      5-min Rain = 0
KSC1 261105Z 30002KT 11/11 A3004 RMK A01 T01120112  RH  100%=      5-min Rain = 0
KSC1 261106Z 30002KT 11/11 A3004 RMK A01 T01100110  RH  100%=      5-min Rain = 0
KSC1 261107Z 29002KT 11/11 A3004 RMK A01 T01090109  RH  100%=      5-min Rain = 0
KSC1 261108Z 29002KT 11/11 A3004 RMK A01 T01080108  RH  100%=      5-min Rain = 0
KSC1 261109Z 29002KT 11/11 A3004 RMK A01 T01070107  RH  100%=      5-min Rain = 0
KSC1 261110Z 29002KT 11/11 A3004 RMK A01 T01070107  RH  100%=      5-min Rain = 0
KSC1 261111Z 29002KT 11/11 A3004 RMK A01 T01070107  RH  100%=      5-min Rain = 0
KSC1 261112Z 29002KT 11/11 A3004 RMK A01 T01080108  RH  100%=      5-min Rain = 0
KSC1 261113Z 29002KT 11/11 A3005 RMK A01 T01080108  RH  100%=      5-min Rain = 0
KSC1 261114Z 29001KT 11/11 A3005 RMK A01 T01080108  RH  100%=      5-min Rain = 0
KSC1 261115Z 28001KT 11/11 A3005 RMK A01 T01070107  RH  100%=      5-min Rain = 0
KSC1 261116Z 27001KT 11/11 A3005 RMK A01 T01050105  RH  100%=      5-min Rain = 0
KSC1 261117Z 27001KT 11/11 A3005 RMK A01 T01050105  RH  100%=      5-min Rain = 0
KSC1 261118Z 27001KT 10/10 A3005 RMK A01 T01040104  RH  100%=      5-min Rain = 0
KSC1 261119Z 27001KT 10/10 A3005 RMK A01 T01030103  RH  100%=      5-min Rain = 0
KSC1 261120Z 27001KT 10/10 A3005 RMK A01 T01030103  RH  100%=      5-min Rain = 0
KSC1 261121Z 27001KT 10/10 A3005 RMK A01 T01030103  RH  100%=      5-min Rain = 0
KSC1 261122Z 27000KT 10/10 A3005 RMK A01 T01030103  RH  100%=      5-min Rain = 0
KSC1 261123Z 26000KT 10/10 A3005 RMK A01 T01030103  RH  100%=      5-min Rain = 0
KSC1 261124Z 24000KT 10/10 A3005 RMK A01 T01020102  RH  100%=      5-min Rain = 0
KSC1 261125Z 24000KT 10/10 A3005 RMK A01 T01020102  RH  100%=      5-min Rain = 0
KSC1 261126Z 23001KT 10/10 A3005 RMK A01 T01020102  RH  100%=      5-min Rain = 0
KSC1 261127Z 22001KT 10/10 A3005 RMK A01 T01020102  RH  100%=      5-min Rain = 0
KSC1 261128Z 22001KT 10/10 A3005 RMK A01 T01020102  RH  100%=      5-min Rain = 0
KSC1 261129Z 22001KT 10/10 A3005 RMK A01 T01020102  RH  100%=      5-min Rain = 0
KSC1 261130Z 22001KT 10/10 A3005 RMK A01 T01020103  RH  100%=      5-min Rain = 0
KSC1 261131Z 23001KT 10/10 A3005 RMK A01 T01030103  RH  100%=      5-min Rain = 0
KSC1 261132Z 23001KT 10/10 A3005 RMK A01 T01030103  RH  100%=      5-min Rain = 0
KSC1 261133Z 23001KT 10/10 A3005 RMK A01 T01030103  RH  100%=      5-min Rain = 0
KSC1 261134Z 24001KT 10/10 A3005 RMK A01 T01030103  RH  100%=      5-min Rain = 0
KSC1 261135Z 25001KT 10/10 A3005 RMK A01 T01040104  RH  100%=      5-min Rain = 0
KSC1 261136Z 25001KT 10/10 A3005 RMK A01 T01030103  RH  100%=      5-min Rain = 0
KSC1 261137Z 25000KT 10/10 A3005 RMK A01 T01020102  RH  100%=      5-min Rain = 0
KSC1 261138Z 00000KT 10/10 A3005 RMK A01 T01010101  RH  100%=      5-min Rain = 0
KSC1 261139Z 26000KT 10/10 A3005 RMK A01 T01010101  RH  100%=      5-min Rain = 0
KSC1 261140Z 27001KT 10/10 A3005 RMK A01 T01010101  RH  100%=      5-min Rain = 0
KSC1 261141Z 27000KT 10/10 A3005 RMK A01 T01010101  RH  100%=      5-min Rain = 0
KSC1 261142Z 27001KT 10/10 A3005 RMK A01 T01010101  RH  100%=      5-min Rain = 0
KSC1 261143Z 27001KT 10/10 A3005 RMK A01 T01010101  RH  100%=      5-min Rain = 0
KSC1 261144Z 27001KT 10/10 A3005 RMK A01 T01000100  RH  100%=      5-min Rain = 0
KSC1 261145Z 27001KT 10/10 A3005 RMK A01 T01000100  RH  100%=      5-min Rain = 0
KSC1 261146Z 27001KT 10/10 A3005 RMK A01 T01000100  RH  100%=      5-min Rain = 0
KSC1 261147Z 27000KT 10/10 A3005 RMK A01 T00990099  RH  100%=      5-min Rain = 0
KSC1 261148Z 27000KT 10/10 A3005 RMK A01 T00990099  RH  100%=      5-min Rain = 0
KSC1 261149Z 27000KT 10/10 A3005 RMK A01 T00990099  RH  100%=      5-min Rain = 0
KSC1 261150Z 27000KT 10/10 A3005 RMK A01 T00990099  RH  100%=      5-min Rain = 0
KSC1 261151Z 00000KT 10/10 A3005 RMK A01 T01000100  RH  100%=      5-min Rain = 0
KSC1 261152Z 00000KT 10/10 A3005 RMK A01 T01000100  RH  100%=      5-min Rain = 0
KSC1 261153Z 00000KT 10/10 A3005 RMK A01 T01000100  RH  100%=      5-min Rain = 0
KSC1 261154Z 00000KT 10/10 A3005 RMK A01 T01000100  RH  100%=      5-min Rain = 0
KSC1 261155Z 00000KT 10/10 A3005 RMK A01 T01000100  RH  100%=      5-min Rain = 0
KSC1 261156Z 00000KT 10/10 A3005 RMK A01 T01000100  RH  100%=      5-min Rain = 0
KSC1 261157Z 00000KT 10/10 A3005 RMK A01 T01000100  RH  100%=      5-min Rain = 0
KSC1 261158Z 00000KT 10/10 A3005 RMK A01 T01000100  RH  100%=      5-min Rain = 0
KSC1 261159Z 00000KT 10/10 A3005 RMK A01 T01000100  RH  100%=      5-min Rain = 0
KSC1 261200Z 00000KT 10/10 A3005 RMK A01 T01000100  RH  100%=      5-min Rain = 0
KSC1 261201Z 00000KT 10/10 A3006 RMK A01 T01000100  RH  100%=      5-min Rain = 0
KSC1 261202Z 00000KT 10/10 A3006 RMK A01 T01000100  RH  100%=      5-min Rain = 0
KSC1 261203Z 00000KT 10/10 A3006 RMK A01 T01010101  RH  100%=      5-min Rain = 0
KSC1 261204Z 00000KT 10/10 A3006 RMK A01 T01010101  RH  100%=      5-min Rain = 0
KSC1 261205Z 00000KT 10/10 A3006 RMK A01 T01020102  RH  100%=      5-min Rain = 0
KSC1 261206Z 00000KT 10/10 A3006 RMK A01 T01030103  RH  100%=      5-min Rain = 0
KSC1 261207Z 00000KT 10/10 A3005 RMK A01 T01040104  RH  100%=      5-min Rain = 0
KSC1 261208Z 32000KT 10/11 A3005 RMK A01 T01040105  RH  100%=      5-min Rain = 0
KSC1 261209Z 32001KT 11/11 A3005 RMK A01 T01050105  RH  100%=      5-min Rain = 0
KSC1 261210Z 32001KT 11/11 A3005 RMK A01 T01060106  RH  100%=      5-min Rain = 0
KSC1 261211Z 32001KT 11/11 A3005 RMK A01 T01070107  RH  100%=      5-min Rain = 0
KSC1 261212Z 31001KT 11/11 A3005 RMK A01 T01080108  RH  100%=      5-min Rain = 0
KSC1 261213Z 31001KT 11/11 A3005 RMK A01 T01080108  RH  100%=      5-min Rain = 0
KSC1 261214Z 32001KT 11/11 A3005 RMK A01 T01090109  RH  100%=      5-min Rain = 0
KSC1 261215Z 32001KT 11/11 A3005 RMK A01 T01090109  RH  100%=      5-min Rain = 0
KSC1 261216Z 31002KT 11/11 A3005 RMK A01 T01100110  RH  100%=      5-min Rain = 0
KSC1 261217Z 31002KT 11/11 A3005 RMK A01 T01110111  RH  100%=      5-min Rain = 0
KSC1 261218Z 32002KT 11/11 A3005 RMK A01 T01110111  RH  100%=      5-min Rain = 0
KSC1 261219Z 32001KT 11/11 A3005 RMK A01 T01120112  RH  100%=      5-min Rain = 0
KSC1 261220Z 32001KT 11/11 A3005 RMK A01 T01130113  RH  100%=      5-min Rain = 0
KSC1 261221Z 32001KT 12/12 A3005 RMK A01 T01150115  RH  100%=      5-min Rain = 0
KSC1 261222Z 31001KT 12/12 A3005 RMK A01 T01170117  RH  100%=      5-min Rain = 0
KSC1 261223Z 30001KT 12/12 A3005 RMK A01 T01190119  RH  100%=      5-min Rain = 0
KSC1 261224Z 28001KT 12/12 A3005 RMK A01 T01200120  RH  100%=      5-min Rain = 0
KSC1 261225Z 26001KT 12/12 A3005 RMK A01 T01220122  RH  100%=      5-min Rain = 0
KSC1 261226Z 25001KT 12/12 A3005 RMK A01 T01230123  RH  100%=      5-min Rain = 0
KSC1 261227Z 25001KT 12/12 A3005 RMK A01 T01240124  RH  100%=      5-min Rain = 0
KSC1 261228Z 25001KT 13/13 A3005 RMK A01 T01250125  RH  100%=      5-min Rain = 0
KSC1 261229Z 26001KT 13/13 A3005 RMK A01 T01260126  RH  100%=      5-min Rain = 0
KSC1 261230Z 27002KT 13/13 A3005 RMK A01 T01270127  RH  100%=      5-min Rain = 0
KSC1 261231Z 27002KT 13/13 A3005 RMK A01 T01280128  RH  100%=      5-min Rain = 0
KSC1 261232Z 26002KT 13/13 A3005 RMK A01 T01290129  RH  100%=      5-min Rain = 0
KSC1 261233Z 26002KT 13/13 A3005 RMK A01 T01300130  RH  100%=      5-min Rain = 0
KSC1 261234Z 26003KT 13/13 A3005 RMK A01 T01310131  RH  100%=      5-min Rain = 0
KSC1 261235Z 25002KT 13/13 A3006 RMK A01 T01310131  RH  100%=      5-min Rain = 0
KSC1 261236Z 25003KT 13/13 A3006 RMK A01 T01320132  RH  100%=      5-min Rain = 0
KSC1 261237Z 25003KT 13/13 A3006 RMK A01 T01320133  RH  100%=      5-min Rain = 0
KSC1 261238Z 25003KT 13/13 A3006 RMK A01 T01330133  RH  100%=      5-min Rain = 0
KSC1 261239Z 25002KT 13/13 A3006 RMK A01 T01340134  RH  100%=      5-min Rain = 0
KSC1 261240Z 26002KT 14/14 A3006 RMK A01 T01350135  RH  100%=      5-min Rain = 0
KSC1 261241Z 26002KT 14/14 A3006 RMK A01 T01360136  RH  100%=      5-min Rain = 0
KSC1 261242Z 26003KT 14/14 A3006 RMK A01 T01370137  RH  100%=      5-min Rain = 0
KSC1 261243Z 26003KT 14/14 A3006 RMK A01 T01380138  RH  100%=      5-min Rain = 0
KSC1 261244Z 26002KT 14/14 A3006 RMK A01 T01390139  RH  100%=      5-min Rain = 0
KSC1 261245Z 26002KT 14/14 A3006 RMK A01 T01400140  RH  100%=      5-min Rain = 0
KSC1 261246Z 26003KT 14/14 A3006 RMK A01 T01400140  RH  100%=      5-min Rain = 0
KSC1 261247Z 25003KT 14/14 A3006 RMK A01 T01410141  RH  100%=      5-min Rain = 0
KSC1 261248Z 26003KT 14/14 A3006 RMK A01 T01410141  RH  100%=      5-min Rain = 0
KSC1 261249Z 26003KT 14/14 A3006 RMK A01 T01420142  RH  100%=      5-min Rain = 0
KSC1 261250Z 26003KT 14/14 A3006 RMK A01 T01420142  RH  100%=      5-min Rain = 0
KSC1 261251Z 26003KT 14/14 A3006 RMK A01 T01430143  RH  100%=      5-min Rain = 0
KSC1 261252Z 26003KT 14/14 A3006 RMK A01 T01440144  RH  100%=      5-min Rain = 0
KSC1 261253Z 26003KT 15/15 A3006 RMK A01 T01450145  RH  100%=      5-min Rain = 0
KSC1 261254Z 26003KT 15/15 A3006 RMK A01 T01460145  RH  100%=      5-min Rain = 0
KSC1 261255Z 27003KT 15/14 A3006 RMK A01 T01460144  RH  099%=      5-min Rain = 0
KSC1 261256Z 27003KT 15/14 A3006 RMK A01 T01460143  RH  098%=      5-min Rain = 0
KSC1 261257Z 27002KT 15/14 A3006 RMK A01 T01470141  RH  096%=      5-min Rain = 0
KSC1 261258Z 28002KT 15/14 A3006 RMK A01 T01470144  RH  098%=      5-min Rain = 0
KSC1 261259Z 28003KT 15/15 A3006 RMK A01 T01490147  RH  099%=      5-min Rain = 0
KSC1 261300Z 27003KT 15/14 A3006 RMK A01 T01490144  RH  097%=      5-min Rain = 0
KSC1 261301Z 27003KT 15/14 A3006 RMK A01 T01490143  RH  096%=      5-min Rain = 0
KSC1 261302Z 27003KT 15/14 A3006 RMK A01 T01500143  RH  096%=      5-min Rain = 0
KSC1 261303Z 27002KT 15/14 A3006 RMK A01 T01500142  RH  095%=      5-min Rain = 0
KSC1 261304Z 29002KT 15/14 A3006 RMK A01 T01500141  RH  094%=      5-min Rain = 0
KSC1 261305Z 29002KT 15/14 A3006 RMK A01 T01510141  RH  094%=      5-min Rain = 0
KSC1 261306Z 29003KT 15/14 A3006 RMK A01 T01510139  RH  092%=      5-min Rain = 0
KSC1 261307Z 28002KT 15/14 A3006 RMK A01 T01510137  RH  092%=      5-min Rain = 0
KSC1 261308Z 30002KT 15/14 A3006 RMK A01 T01510140  RH  093%=      5-min Rain = 0
KSC1 261309Z 31002KT 15/14 A3006 RMK A01 T01520143  RH  094%=      5-min Rain = 0
KSC1 261310Z 31002KT 15/14 A3006 RMK A01 T01530141  RH  093%=      5-min Rain = 0
KSC1 261311Z 33002KT 15/14 A3006 RMK A01 T01540143  RH  093%=      5-min Rain = 0
KSC1 261312Z 31003KT 16/14 A3006 RMK A01 T01550138  RH  090%=      5-min Rain = 0
KSC1 261313Z 30002KT 16/14 A3006 RMK A01 T01550136  RH  089%=      5-min Rain = 0
KSC1 261314Z 30003KT 16/14 A3006 RMK A01 T01550135  RH  088%=      5-min Rain = 0
KSC1 261315Z 32003KT 16/14 A3006 RMK A01 T01560136  RH  088%=      5-min Rain = 0
KSC1 261316Z 32003KT 16/14 A3006 RMK A01 T01570140  RH  090%=      5-min Rain = 0
KSC1 261317Z 32003KT 16/14 A3006 RMK A01 T01580137  RH  087%=      5-min Rain = 0
KSC1 261318Z 31003KT 16/13 A3006 RMK A01 T01580133  RH  085%=      5-min Rain = 0
KSC1 261319Z 32002KT 16/13 A3006 RMK A01 T01590134  RH  085%=      5-min Rain = 0
KSC1 261320Z 33002KT 16/14 A3006 RMK A01 T01590136  RH  086%=      5-min Rain = 0
KSC1 261321Z 32002KT 16/14 A3006 RMK A01 T01600135  RH  085%=      5-min Rain = 0
KSC1 261322Z 31002KT 16/14 A3006 RMK A01 T01610136  RH  085%=      5-min Rain = 0
KSC1 261323Z 30002KT 16/14 A3006 RMK A01 T01620137  RH  085%=      5-min Rain = 0
KSC1 261324Z 31003KT 16/13 A3006 RMK A01 T01630134  RH  083%=      5-min Rain = 0
KSC1 261325Z 28003KT 16/13 A3006 RMK A01 T01630134  RH  083%=      5-min Rain = 0
KSC1 261326Z 30003KT 16/13 A3006 RMK A01 T01630134  RH  083%=      5-min Rain = 0
KSC1 261327Z 32004KT 16/13 A3006 RMK A01 T01630131  RH  081%=      5-min Rain = 0
KSC1 261328Z 32003KT 16/13 A3006 RMK A01 T01630129  RH  080%=      5-min Rain = 0
KSC1 261329Z 28003KT 16/13 A3006 RMK A01 T01640134  RH  082%=      5-min Rain = 0
KSC1 261330Z 27003KT 17/13 A3006 RMK A01 T01650133  RH  082%=      5-min Rain = 0
KSC1 261331Z 28004KT 17/13 A3006 RMK A01 T01650132  RH  081%=      5-min Rain = 0
KSC1 261332Z 31003KT 17/13 A3006 RMK A01 T01650131  RH  080%=      5-min Rain = 0
KSC1 261333Z 31002KT 17/13 A3006 RMK A01 T01650130  RH  080%=      5-min Rain = 0
KSC1 261334Z 31002KT 17/13 A3006 RMK A01 T01660132  RH  080%=      5-min Rain = 0
KSC1 261335Z 32002KT 17/14 A3006 RMK A01 T01670136  RH  082%=      5-min Rain = 0
KSC1 261336Z 29003KT 17/13 A3006 RMK A01 T01690134  RH  080%=      5-min Rain = 0
KSC1 261337Z 29003KT 17/13 A3006 RMK A01 T01690131  RH  078%=      5-min Rain = 0
KSC1 261338Z 29004KT 17/13 A3006 RMK A01 T01700129  RH  077%=      5-min Rain = 0
KSC1 261339Z 30005KT 17/13 A3006 RMK A01 T01690127  RH  076%=      5-min Rain = 0
KSC1 261340Z 29002KT 17/13 A3006 RMK A01 T01690129  RH  077%=      5-min Rain = 0
KSC1 261341Z 29004KT 17/13 A3006 RMK A01 T01700131  RH  078%=      5-min Rain = 0
KSC1 261342Z 29004KT 17/13 A3006 RMK A01 T01700129  RH  077%=      5-min Rain = 0
KSC1 261343Z 28004KT 17/13 A3006 RMK A01 T01700129  RH  077%=      5-min Rain = 0
KSC1 261344Z 28004KT 17/13 A3006 RMK A01 T01700131  RH  078%=      5-min Rain = 0
KSC1 261345Z 28003KT 17/13 A3006 RMK A01 T01700131  RH  077%=      5-min Rain = 0
KSC1 261346Z 30003KT 17/13 A3006 RMK A01 T01710128  RH  076%=      5-min Rain = 0
KSC1 261347Z 28004KT 17/13 A3006 RMK A01 T01710133  RH  078%=      5-min Rain = 0
KSC1 261348Z 29005KT 17/13 A3006 RMK A01 T01720131  RH  077%=      5-min Rain = 0
KSC1 261349Z 29004KT 17/13 A3006 RMK A01 T01730128  RH  075%=      5-min Rain = 0
KSC1 261350Z 31003KT 17/13 A3006 RMK A01 T01730129  RH  076%=      5-min Rain = 0
KSC1 261351Z 32003KT 17/13 A3006 RMK A01 T01720129  RH  076%=      5-min Rain = 0
KSC1 261352Z 33003KT 17/13 A3006 RMK A01 T01730131  RH  076%=      5-min Rain = 0
KSC1 261353Z 29003KT 17/13 A3006 RMK A01 T01740132  RH  076%=      5-min Rain = 0
KSC1 261354Z 27003KT 18/13 A3006 RMK A01 T01760132  RH  076%=      5-min Rain = 0
KSC1 261355Z 30003KT 18/13 A3006 RMK A01 T01770131  RH  075%=      5-min Rain = 0
KSC1 261356Z 29002KT 18/13 A3006 RMK A01 T01770128  RH  073%=      5-min Rain = 0
KSC1 261357Z 27002KT 18/13 A3006 RMK A01 T01770128  RH  073%=      5-min Rain = 0
KSC1 261358Z 28002KT 18/13 A3006 RMK A01 T01770130  RH  074%=      5-min Rain = 0
KSC1 261359Z 35002KT 18/13 A3006 RMK A01 T01780129  RH  073%=      5-min Rain = 0
KSC1 261400Z 35002KT 18/13 A3006 RMK A01 T01790129  RH  073%=      5-min Rain = 0
KSC1 261401Z 33001KT 18/13 A3006 RMK A01 T01790125  RH  070%=      5-min Rain = 0
KSC1 261402Z 34003KT 18/13 A3006 RMK A01 T01790126  RH  071%=      5-min Rain = 0
KSC1 261403Z 34003KT 18/13 A3006 RMK A01 T01800128  RH  072%=      5-min Rain = 0
KSC1 261404Z 34004KT 18/13 A3006 RMK A01 T01800129  RH  072%=      5-min Rain = 0
KSC1 261405Z 32004KT 18/13 A3006 RMK A01 T01800130  RH  073%=      5-min Rain = 0
KSC1 261406Z 33004KT 18/13 A3006 RMK A01 T01800128  RH  071%=      5-min Rain = 0
KSC1 261407Z 35005KT 18/13 A3006 RMK A01 T01810129  RH  072%=      5-min Rain = 0
KSC1 261408Z 35005KT 18/13 A3006 RMK A01 T01820129  RH  071%=      5-min Rain = 0
KSC1 261409Z 35005KT 18/13 A3006 RMK A01 T01820130  RH  071%=      5-min Rain = 0
KSC1 261410Z 35004KT 18/13 A3007 RMK A01 T01820131  RH  072%=      5-min Rain = 0
KSC1 261411Z 36003KT 18/13 A3007 RMK A01 T01840133  RH  072%=      5-min Rain = 0
KSC1 261412Z 34004KT 19/13 A3006 RMK A01 T01850132  RH  071%=      5-min Rain = 0
KSC1 261413Z 35003KT 19/13 A3006 RMK A01 T01870132  RH  070%=      5-min Rain = 0
KSC1 261414Z 31003KT 19/13 A3006 RMK A01 T01900131  RH  069%=      5-min Rain = 0
KSC1 261415Z 31003KT 19/13 A3006 RMK A01 T01910126  RH  066%=      5-min Rain = 0
KSC1 261416Z 33003KT 19/13 A3006 RMK A01 T01920127  RH  066%=      5-min Rain = 0
KSC1 261417Z 35003KT 19/13 A3006 RMK A01 T01920125  RH  065%=      5-min Rain = 0
KSC1 261418Z 32003KT 19/13 A3006 RMK A01 T01920128  RH  066%=      5-min Rain = 0
KSC1 261419Z 34003KT 19/13 A3006 RMK A01 T01930126  RH  065%=      5-min Rain = 0
KSC1 261420Z 35002KT 19/12 A3006 RMK A01 T01920122  RH  064%=      5-min Rain = 0
KSC1 261421Z 33003KT 19/13 A3006 RMK A01 T01900125  RH  066%=      5-min Rain = 0
KSC1 261422Z 33003KT 19/12 A3006 RMK A01 T01890124  RH  066%=      5-min Rain = 0
KSC1 261423Z 34004KT 19/12 A3006 RMK A01 T01890124  RH  066%=      5-min Rain = 0
KSC1 261424Z 35003KT 19/12 A3006 RMK A01 T01900123  RH  065%=      5-min Rain = 0
KSC1 261425Z 35003KT 19/12 A3006 RMK A01 T01910123  RH  065%=      5-min Rain = 0
KSC1 261426Z 33002KT 19/12 A3006 RMK A01 T01910124  RH  065%=      5-min Rain = 0
KSC1 261427Z 35003KT 19/13 A3006 RMK A01 T01910125  RH  065%=      5-min Rain = 0
KSC1 261428Z 34002KT 19/13 A3006 RMK A01 T01920125  RH  065%=      5-min Rain = 0
KSC1 261429Z 00001KT 19/12 A3006 RMK A01 T01920123  RH  064%=      5-min Rain = 0
KSC1 261430Z 31003KT 19/12 A3006 RMK A01 T01920123  RH  064%=      5-min Rain = 0
KSC1 261431Z 28002KT 19/12 A3006 RMK A01 T01920121  RH  063%=      5-min Rain = 0
KSC1 261432Z 28001KT 19/12 A3006 RMK A01 T01910122  RH  064%=      5-min Rain = 0
KSC1 261433Z 34002KT 19/12 A3006 RMK A01 T01910123  RH  064%=      5-min Rain = 0
KSC1 261434Z 34002KT 19/12 A3006 RMK A01 T01910122  RH  064%=      5-min Rain = 0
KSC1 261435Z 34001KT 19/12 A3006 RMK A01 T01910123  RH  065%=      5-min Rain = 0
KSC1 261436Z 33003KT 19/13 A3006 RMK A01 T01910125  RH  065%=      5-min Rain = 0
KSC1 261437Z 32003KT 19/13 A3007 RMK A01 T01910125  RH  066%=      5-min Rain = 0
KSC1 261438Z 31002KT 19/12 A3007 RMK A01 T01910119  RH  063%=      5-min Rain = 0
KSC1 261439Z 29002KT 19/12 A3007 RMK A01 T01910116  RH  062%=      5-min Rain = 0
KSC1 261440Z 29002KT 19/12 A3007 RMK A01 T01920119  RH  063%=      5-min Rain = 0
KSC1 261441Z 32004KT 19/12 A3007 RMK A01 T01930118  RH  062%=      5-min Rain = 0
KSC1 261442Z 33005KT 20/12 A3007 RMK A01 T01950116  RH  060%=      5-min Rain = 0
KSC1 261443Z 34004KT 20/11 A3007 RMK A01 T01960113  RH  059%=      5-min Rain = 0
KSC1 261444Z 34004KT 20/12 A3007 RMK A01 T01970116  RH  060%=      5-min Rain = 0
KSC1 261445Z 32005KT 20/11 A3007 RMK A01 T01980113  RH  058%=      5-min Rain = 0
KSC1 261446Z 32005KT 20/11 A3007 RMK A01 T01990108  RH  056%=      5-min Rain = 0
KSC1 261447Z 30004KT 20/11 A3007 RMK A01 T01980108  RH  056%=      5-min Rain = 0
KSC1 261448Z 33003KT 20/11 A3007 RMK A01 T01970110  RH  057%=      5-min Rain = 0
KSC1 261449Z 33003KT 20/11 A3007 RMK A01 T01970111  RH  057%=      5-min Rain = 0
KSC1 261450Z 35005KT 20/10 A3007 RMK A01 T01990104  RH  054%=      5-min Rain = 0
KSC1 261451Z 34004KT 20/09 A3007 RMK A01 T02000094  RH  050%=      5-min Rain = 0
KSC1 261452Z 33003KT 20/09 A3007 RMK A01 T02010092  RH  050%=      5-min Rain = 0
KSC1 261453Z 32003KT 20/10 A3007 RMK A01 T02000096  RH  051%=      5-min Rain = 0
KSC1 261454Z 32003KT 20/10 A3007 RMK A01 T02000103  RH  053%=      5-min Rain = 0
KSC1 261455Z 34003KT 20/10 A3007 RMK A01 T02010101  RH  053%=      5-min Rain = 0
KSC1 261456Z 34003KT 20/10 A3006 RMK A01 T02030096  RH  050%=      5-min Rain = 0
KSC1 261457Z 35003KT 20/10 A3007 RMK A01 T02040102  RH  052%=      5-min Rain = 0
KSC1 261458Z 34003KT 21/11 A3007 RMK A01 T02050105  RH  053%=      5-min Rain = 0
KSC1 261459Z 31004KT 21/11 A3007 RMK A01 T02050109  RH  054%=      5-min Rain = 0
KSC1 261500Z 32006KT 21/11 A3007 RMK A01 T02050106  RH  053%=      5-min Rain = 0
KSC1 261501Z 31004KT 20/11 A3007 RMK A01 T02040107  RH  054%=      5-min Rain = 0
KSC1 261502Z 31004KT 20/11 A3007 RMK A01 T02020111  RH  056%=      5-min Rain = 0
KSC1 261503Z 33004KT 20/11 A3007 RMK A01 T02020111  RH  056%=      5-min Rain = 0
KSC1 261504Z 33001KT 20/11 A3007 RMK A01 T02010109  RH  056%=      5-min Rain = 0
KSC1 261505Z 29004KT 20/11 A3007 RMK A01 T02000111  RH  056%=      5-min Rain = 0
KSC1 261506Z 31002KT 20/11 A3007 RMK A01 T02010111  RH  056%=      5-min Rain = 0
KSC1 261507Z 33001KT 20/11 A3007 RMK A01 T02010109  RH  055%=      5-min Rain = 0
KSC1 261508Z 32001KT 20/11 A3007 RMK A01 T02010109  RH  055%=      5-min Rain = 0
KSC1 261509Z 35002KT 20/11 A3007 RMK A01 T02020108  RH  055%=      5-min Rain = 0
KSC1 261510Z 36002KT 20/10 A3007 RMK A01 T02020104  RH  053%=      5-min Rain = 0
KSC1 261511Z 32002KT 20/11 A3007 RMK A01 T02020108  RH  055%=      5-min Rain = 0
KSC1 261512Z 35002KT 20/11 A3007 RMK A01 T02020109  RH  055%=      5-min Rain = 0
KSC1 261513Z 01003KT 20/11 A3007 RMK A01 T02030108  RH  055%=      5-min Rain = 0
KSC1 261514Z 01004KT 20/11 A3007 RMK A01 T02030110  RH  055%=      5-min Rain = 0
KSC1 261515Z 00003KT 20/11 A3007 RMK A01 T02030109  RH  055%=      5-min Rain = 0
KSC1 261516Z 36003KT 20/11 A3007 RMK A01 T02030109  RH  055%=      5-min Rain = 0
KSC1 261517Z 02004KT 20/11 A3007 RMK A01 T02040106  RH  053%=      5-min Rain = 0
KSC1 261518Z 02003KT 21/11 A3007 RMK A01 T02050108  RH  054%=      5-min Rain = 0
KSC1 261519Z 36003KT 21/11 A3007 RMK A01 T02060111  RH  054%=      5-min Rain = 0
KSC1 261520Z 02001KT 21/11 A3007 RMK A01 T02070112  RH  055%=      5-min Rain = 0
KSC1 261521Z 04003KT 21/11 A3007 RMK A01 T02070112  RH  054%=      5-min Rain = 0
KSC1 261522Z 03003KT 21/11 A3007 RMK A01 T02090112  RH  054%=      5-min Rain = 0
KSC1 261523Z 34004KT 21/11 A3007 RMK A01 T02100110  RH  053%=      5-min Rain = 0
KSC1 261524Z 33004KT 21/11 A3007 RMK A01 T02100108  RH  052%=      5-min Rain = 0
KSC1 261525Z 31003KT 21/11 A3007 RMK A01 T02100107  RH  051%=      5-min Rain = 0
KSC1 261526Z 34003KT 21/11 A3007 RMK A01 T02100106  RH  051%=      5-min Rain = 0
KSC1 261527Z 32004KT 21/10 A3007 RMK A01 T02100104  RH  051%=      5-min Rain = 0
KSC1 261528Z 36002KT 21/10 A3007 RMK A01 T02100102  RH  050%=      5-min Rain = 0
KSC1 261529Z 00002KT 21/10 A3007 RMK A01 T02100104  RH  051%=      5-min Rain = 0
KSC1 261530Z 36005KT 21/10 A3007 RMK A01 T02120104  RH  050%=      5-min Rain = 0
KSC1 261531Z 35005KT 21/10 A3007 RMK A01 T02130098  RH  048%=      5-min Rain = 0
KSC1 261532Z 03005KT 21/10 A3007 RMK A01 T02130096  RH  047%=      5-min Rain = 0
KSC1 261533Z 01003KT 21/10 A3007 RMK A01 T02120098  RH  048%=      5-min Rain = 0
KSC1 261534Z 04004KT 21/10 A3007 RMK A01 T02110100  RH  049%=      5-min Rain = 0
KSC1 261535Z 05001KT 21/10 A3007 RMK A01 T02120101  RH  049%=      5-min Rain = 0
KSC1 261536Z 03002KT 21/10 A3007 RMK A01 T02140101  RH  049%=      5-min Rain = 0
KSC1 261537Z 36002KT 22/10 A3007 RMK A01 T02150102  RH  048%=      5-min Rain = 0
KSC1 261538Z 32002KT 22/09 A3007 RMK A01 T02150089  RH  045%=      5-min Rain = 0
KSC1 261539Z 35004KT 22/09 A3007 RMK A01 T02160090  RH  045%=      5-min Rain = 0
KSC1 261540Z 35007KT 22/09 A3007 RMK A01 T02180090  RH  044%=      5-min Rain = 0
KSC1 261541Z 36007KT 22/09 A3007 RMK A01 T02190088  RH  043%=      5-min Rain = 0
KSC1 261542Z 00006KT 22/09 A3007 RMK A01 T02190086  RH  043%=      5-min Rain = 0
KSC1 261543Z 01005KT 22/09 A3007 RMK A01 T02170087  RH  043%=      5-min Rain = 0
KSC1 261544Z 02004KT 22/09 A3007 RMK A01 T02170086  RH  043%=      5-min Rain = 0
KSC1 261545Z 36003KT 22/09 A3007 RMK A01 T02170085  RH  043%=      5-min Rain = 0
KSC1 261546Z 00004KT 22/09 A3007 RMK A01 T02160086  RH  043%=      5-min Rain = 0
KSC1 261547Z 01001KT 22/08 A3007 RMK A01 T02180082  RH  042%=      5-min Rain = 0
KSC1 261548Z 34001KT 22/08 A3006 RMK A01 T02190080  RH  041%=      5-min Rain = 0
KSC1 261549Z 02002KT 22/08 A3006 RMK A01 T02190079  RH  041%=      5-min Rain = 0
KSC1 261550Z 05004KT 22/08 A3006 RMK A01 T02190083  RH  042%=      5-min Rain = 0
KSC1 261551Z 05003KT 22/08 A3006 RMK A01 T02200081  RH  041%=      5-min Rain = 0
KSC1 261552Z 05003KT 22/08 A3006 RMK A01 T02200081  RH  041%=      5-min Rain = 0
KSC1 261553Z 04004KT 22/08 A3006 RMK A01 T02190082  RH  041%=      5-min Rain = 0
KSC1 261554Z 01004KT 22/08 A3006 RMK A01 T02190082  RH  041%=      5-min Rain = 0
KSC1 261555Z 01006KT 22/08 A3006 RMK A01 T02180077  RH  040%=      5-min Rain = 0
KSC1 261556Z 01005KT 22/08 A3006 RMK A01 T02190076  RH  040%=      5-min Rain = 0
KSC1 261557Z 35004KT 22/08 A3006 RMK A01 T02210077  RH  039%=      5-min Rain = 0
KSC1 261558Z 31006KT 22/08 A3006 RMK A01 T02240080  RH  040%=      5-min Rain = 0
KSC1 261559Z 33005KT 23/08 A3006 RMK A01 T02250076  RH  038%=      5-min Rain = 0
KSC1 261600Z 32005KT 22/08 A3006 RMK A01 T02240076  RH  039%=      5-min Rain = 0
KSC1 261601Z 31004KT 22/08 A3006 RMK A01 T02230075  RH  039%=      5-min Rain = 0
KSC1 261602Z 29004KT 22/08 A3006 RMK A01 T02210078  RH  040%=      5-min Rain = 0
KSC1 261603Z 31004KT 22/08 A3006 RMK A01 T02220078  RH  040%=      5-min Rain = 0
KSC1 261604Z 35005KT 22/09 A3006 RMK A01 T02240085  RH  041%=      5-min Rain = 0
KSC1 261605Z 34005KT 23/09 A3007 RMK A01 T02270086  RH  040%=      5-min Rain = 0
KSC1 261606Z 01005KT 23/08 A3007 RMK A01 T02270082  RH  040%=      5-min Rain = 0
KSC1 261607Z 04003KT 22/09 A3007 RMK A01 T02230086  RH  041%=      5-min Rain = 0
KSC1 261608Z 07001KT 22/09 A3007 RMK A01 T02230087  RH  042%=      5-min Rain = 0
KSC1 261609Z 04004KT 23/09 A3007 RMK A01 T02250088  RH  042%=      5-min Rain = 0
KSC1 261610Z 03003KT 23/08 A3007 RMK A01 T02260082  RH  040%=      5-min Rain = 0
KSC1 261611Z 02002KT 22/08 A3006 RMK A01 T02240078  RH  039%=      5-min Rain = 0
KSC1 261612Z 01002KT 22/08 A3006 RMK A01 T02230079  RH  040%=      5-min Rain = 0
KSC1 261613Z 33006KT 22/09 A3006 RMK A01 T02240085  RH  041%=      5-min Rain = 0
KSC1 261614Z 30006KT 23/08 A3007 RMK A01 T02280083  RH  039%=      5-min Rain = 0
KSC1 261615Z 31004KT 23/07 A3007 RMK A01 T02290074  RH  037%=      5-min Rain = 0
KSC1 261616Z 31004KT 23/07 A3007 RMK A01 T02290074  RH  037%=      5-min Rain = 0
KSC1 261617Z 31003KT 23/07 A3007 RMK A01 T02270072  RH  037%=      5-min Rain = 0
KSC1 261618Z 30003KT 23/07 A3006 RMK A01 T02260074  RH  038%=      5-min Rain = 0
KSC1 261619Z 26003KT 23/07 A3006 RMK A01 T02260070  RH  037%=      5-min Rain = 0
KSC1 261620Z 27002KT 22/07 A3006 RMK A01 T02240069  RH  037%=      5-min Rain = 0
KSC1 261621Z 29002KT 22/07 A3006 RMK A01 T02240070  RH  037%=      5-min Rain = 0
KSC1 261622Z 33003KT 22/07 A3006 RMK A01 T02230072  RH  038%=      5-min Rain = 0
KSC1 261623Z 35004KT 22/08 A3006 RMK A01 T02240076  RH  038%=      5-min Rain = 0
KSC1 261624Z 33005KT 23/08 A3006 RMK A01 T02250076  RH  038%=      5-min Rain = 0
KSC1 261625Z 34003KT 23/08 A3006 RMK A01 T02250077  RH  039%=      5-min Rain = 0
KSC1 261626Z 30001KT 22/08 A3006 RMK A01 T02240076  RH  039%=      5-min Rain = 0
KSC1 261627Z 29002KT 23/08 A3006 RMK A01 T02250077  RH  039%=      5-min Rain = 0
KSC1 261628Z 29002KT 23/08 A3006 RMK A01 T02270080  RH  039%=      5-min Rain = 0
KSC1 261629Z 02004KT 23/08 A3006 RMK A01 T02300081  RH  038%=      5-min Rain = 0
KSC1 261630Z 36004KT 23/07 A3006 RMK A01 T02320073  RH  036%=      5-min Rain = 0
KSC1 261631Z 35003KT 23/07 A3006 RMK A01 T02310067  RH  035%=      5-min Rain = 0
KSC1 261632Z 34004KT 23/07 A3006 RMK A01 T02310070  RH  035%=      5-min Rain = 0
KSC1 261633Z 32005KT 23/07 A3006 RMK A01 T02310067  RH  035%=      5-min Rain = 0
KSC1 261634Z 32005KT 23/07 A3006 RMK A01 T02300066  RH  035%=      5-min Rain = 0
KSC1 261635Z 31009KT 23/07 A3006 RMK A01 T02320068  RH  035%=      5-min Rain = 0
KSC1 261636Z 30007KT 23/07 A3006 RMK A01 T02330066  RH  034%=      5-min Rain = 0
KSC1 261637Z 32005G10KT 23/07 A3006 RMK A01 T02330068  RH  035%=      5-min Rain = 0
KSC1 261638Z 35007KT 24/07 A3006 RMK A01 T02350071  RH  035%=      5-min Rain = 0
KSC1 261639Z 35006KT 24/07 A3006 RMK A01 T02360068  RH  034%=      5-min Rain = 0
KSC1 261640Z 04005KT 23/07 A3006 RMK A01 T02340066  RH  034%=      5-min Rain = 0
KSC1 261641Z 03004KT 23/06 A3006 RMK A01 T02320062  RH  033%=      5-min Rain = 0
KSC1 261642Z 02003KT 23/06 A3006 RMK A01 T02310064  RH  034%=      5-min Rain = 0
KSC1 261643Z 01003KT 23/07 A3006 RMK A01 T02310067  RH  035%=      5-min Rain = 0
KSC1 261644Z 34004KT 23/07 A3006 RMK A01 T02320069  RH  035%=      5-min Rain = 0
KSC1 261645Z 34007KT 23/07 A3006 RMK A01 T02330068  RH  034%=      5-min Rain = 0
KSC1 261646Z 33004KT 23/07 A3006 RMK A01 T02340068  RH  034%=      5-min Rain = 0
KSC1 261647Z 01003KT 24/07 A3006 RMK A01 T02360065  RH  033%=      5-min Rain = 0
KSC1 261648Z 33004KT 24/06 A3006 RMK A01 T02360064  RH  033%=      5-min Rain = 0
KSC1 261649Z 34006KT 24/07 A3006 RMK A01 T02360072  RH  035%=      5-min Rain = 0
KSC1 261650Z 34007KT 24/08 A3006 RMK A01 T02400076  RH  035%=      5-min Rain = 0
KSC1 261651Z 36006KT 24/07 A3006 RMK A01 T02430069  RH  033%=      5-min Rain = 0
KSC1 261652Z 02006KT 24/06 A3006 RMK A01 T02390064  RH  033%=      5-min Rain = 0
KSC1 261653Z 33004KT 24/07 A3006 RMK A01 T02350068  RH  034%=      5-min Rain = 0
KSC1 261654Z 29005KT 24/07 A3006 RMK A01 T02360069  RH  034%=      5-min Rain = 0
KSC1 261655Z 29005KT 24/07 A3006 RMK A01 T02370066  RH  033%=      5-min Rain = 0
KSC1 261656Z 30004KT 24/06 A3006 RMK A01 T02380064  RH  033%=      5-min Rain = 0
KSC1 261657Z 28004KT 24/06 A3006 RMK A01 T02380061  RH  032%=      5-min Rain = 0
KSC1 261658Z 26005KT 24/06 A3006 RMK A01 T02380061  RH  032%=      5-min Rain = 0
KSC1 261659Z 27005KT 24/06 A3006 RMK A01 T02400063  RH  032%=      5-min Rain = 0
KSC1 261700Z 29003KT 24/07 A3006 RMK A01 T02420065  RH  032%=      5-min Rain = 0
KSC1 261701Z 29005KT 24/06 A3006 RMK A01 T02430061  RH  031%=      5-min Rain = 0
KSC1 261702Z 35005KT 24/07 A3006 RMK A01 T02430066  RH  032%=      5-min Rain = 0
KSC1 261703Z 33006KT 24/07 A3006 RMK A01 T02430066  RH  032%=      5-min Rain = 0
KSC1 261704Z 33007KT 24/07 A3006 RMK A01 T02430065  RH  032%=      5-min Rain = 0
KSC1 261705Z 35005KT 24/06 A3006 RMK A01 T02400064  RH  032%=      5-min Rain = 0
KSC1 261706Z 02006KT 24/07 A3006 RMK A01 T02400067  RH  033%=      5-min Rain = 0
KSC1 261707Z 02007KT 24/07 A3006 RMK A01 T02430069  RH  033%=      5-min Rain = 0
KSC1 261708Z 00007KT 24/07 A3006 RMK A01 T02430065  RH  032%=      5-min Rain = 0
KSC1 261709Z 00006KT 24/06 A3006 RMK A01 T02400062  RH  032%=      5-min Rain = 0
KSC1 261710Z 03004KT 24/06 A3006 RMK A01 T02360060  RH  032%=      5-min Rain = 0
KSC1 261711Z 02004KT 24/06 A3006 RMK A01 T02350061  RH  032%=      5-min Rain = 0
KSC1 261712Z 04001KT 24/06 A3006 RMK A01 T02350058  RH  032%=      5-min Rain = 0
KSC1 261713Z 02003KT 24/06 A3006 RMK A01 T02350059  RH  032%=      5-min Rain = 0
KSC1 261714Z 35004KT 24/06 A3006 RMK A01 T02350060  RH  032%=      5-min Rain = 0
KSC1 261715Z 31002KT 23/06 A3006 RMK A01 T02340060  RH  033%=      5-min Rain = 0
KSC1 261716Z 31004KT 23/06 A3006 RMK A01 T02340063  RH  033%=      5-min Rain = 0
KSC1 261717Z 33009KT 24/07 A3006 RMK A01 T02360069  RH  034%=      5-min Rain = 0
KSC1 261718Z 33008KT 24/07 A3006 RMK A01 T02400071  RH  034%=      5-min Rain = 0
KSC1 261719Z 34006G11KT 24/07 A3006 RMK A01 T02410066  RH  033%=      5-min Rain = 0
KSC1 261720Z 35003KT 24/06 A3006 RMK A01 T02400063  RH  032%=      5-min Rain = 0
KSC1 261721Z 33002KT 24/06 A3006 RMK A01 T02370063  RH  033%=      5-min Rain = 0
KSC1 261722Z 33006KT 24/07 A3006 RMK A01 T02370067  RH  033%=      5-min Rain = 0
KSC1 261723Z 33010KT 24/07 A3006 RMK A01 T02380069  RH  034%=      5-min Rain = 0
KSC1 261724Z 32010KT 24/07 A3006 RMK A01 T02410068  RH  033%=      5-min Rain = 0
KSC1 261725Z 33009KT 24/06 A3006 RMK A01 T02400064  RH  032%=      5-min Rain = 0
KSC1 261726Z 33006KT 24/07 A3006 RMK A01 T02390069  RH  034%=      5-min Rain = 0
KSC1 261727Z 35004KT 24/07 A3006 RMK A01 T02410072  RH  034%=      5-min Rain = 0
KSC1 261728Z 36005KT 24/07 A3006 RMK A01 T02430070  RH  033%=      5-min Rain = 0
KSC1 261729Z 32006KT 25/07 A3006 RMK A01 T02450071  RH  033%=      5-min Rain = 0
KSC1 261730Z 33008KT 25/07 A3006 RMK A01 T02460068  RH  032%=      5-min Rain = 0
KSC1 261731Z 33007KT 24/07 A3006 RMK A01 T02420065  RH  032%=      5-min Rain = 0
KSC1 261732Z 32005KT 24/07 A3006 RMK A01 T02390066  RH  033%=      5-min Rain = 0
KSC1 261733Z 30004KT 24/07 A3006 RMK A01 T02380066  RH  033%=      5-min Rain = 0
KSC1 261734Z 28004KT 24/07 A3005 RMK A01 T02380065  RH  033%=      5-min Rain = 0
KSC1 261735Z 28001KT 24/07 A3005 RMK A01 T02380066  RH  033%=      5-min Rain = 0
KSC1 261736Z 13001KT 24/07 A3005 RMK A01 T02380068  RH  034%=      5-min Rain = 0
KSC1 261737Z 27003KT 24/07 A3005 RMK A01 T02410072  RH  034%=      5-min Rain = 0
KSC1 261738Z 28008KT 24/07 A3005 RMK A01 T02440070  RH  033%=      5-min Rain = 0
KSC1 261739Z 31007KT 25/07 A3005 RMK A01 T02450068  RH  032%=      5-min Rain = 0
KSC1 261740Z 28003KT 24/07 A3005 RMK A01 T02430069  RH  033%=      5-min Rain = 0
KSC1 261741Z 29003KT 24/06 A3005 RMK A01 T02430064  RH  032%=      5-min Rain = 0
KSC1 261742Z 28004KT 24/06 A3005 RMK A01 T02420064  RH  032%=      5-min Rain = 0
KSC1 261743Z 28006KT 24/07 A3005 RMK A01 T02420067  RH  033%=      5-min Rain = 0
KSC1 261744Z 28006KT 24/06 A3005 RMK A01 T02430064  RH  032%=      5-min Rain = 0
KSC1 261745Z 31006KT 24/07 A3005 RMK A01 T02440069  RH  032%=      5-min Rain = 0
KSC1 261746Z 35006KT 25/07 A3005 RMK A01 T02450071  RH  033%=      5-min Rain = 0
KSC1 261747Z 35007KT 25/07 A3005 RMK A01 T02460071  RH  033%=      5-min Rain = 0
KSC1 261748Z 33005KT 24/07 A3005 RMK A01 T02440074  RH  034%=      5-min Rain = 0
KSC1 261749Z 31003KT 25/08 A3005 RMK A01 T02460075  RH  033%=      5-min Rain = 0
KSC1 261750Z 22003KT 25/07 A3005 RMK A01 T02470071  RH  033%=      5-min Rain = 0
KSC1 261751Z 31001KT 24/07 A3005 RMK A01 T02440070  RH  033%=      5-min Rain = 0
KSC1 261752Z 34005KT 24/07 A3005 RMK A01 T02440074  RH  034%=      5-min Rain = 0
KSC1 261753Z 33007KT 25/08 A3005 RMK A01 T02480076  RH  033%=      5-min Rain = 0
KSC1 261754Z 31008KT 25/07 A3005 RMK A01 T02490072  RH  032%=      5-min Rain = 0
KSC1 261755Z 28006KT 25/07 A3005 RMK A01 T02470070  RH  032%=      5-min Rain = 0
KSC1 261756Z 27005KT 25/07 A3005 RMK A01 T02460070  RH  032%=      5-min Rain = 0
KSC1 261757Z 27004KT 25/07 A3005 RMK A01 T02460068  RH  032%=      5-min Rain = 0
KSC1 261758Z 27003KT 24/06 A3005 RMK A01 T02440064  RH  032%=      5-min Rain = 0
KSC1 261759Z 28003KT 24/07 A3004 RMK A01 T02420066  RH  032%=      5-min Rain = 0
KSC1 261800Z 31004G9KT 24/07 A3004 RMK A01 T02440071  RH  033%=      5-min Rain = 0
KSC1 261801Z 28009KT 25/07 A3004 RMK A01 T02480074  RH  033%=      5-min Rain = 0
KSC1 261802Z 29007KT 25/07 A3004 RMK A01 T02460068  RH  032%=      5-min Rain = 0
KSC1 261803Z 28009KT 24/07 A3004 RMK A01 T02430073  RH  034%=      5-min Rain = 0
KSC1 261804Z 29007KT 25/07 A3004 RMK A01 T02450071  RH  033%=      5-min Rain = 0
KSC1 261805Z 30004KT 25/07 A3004 RMK A01 T02460074  RH  033%=      5-min Rain = 0
KSC1 261806Z 28007KT 25/08 A3004 RMK A01 T02490076  RH  033%=      5-min Rain = 0
KSC1 261807Z 27007KT 25/07 A3004 RMK A01 T02510070  RH  031%=      5-min Rain = 0
KSC1 261808Z 30009KT 25/07 A3004 RMK A01 T02510073  RH  032%=      5-min Rain = 0
KSC1 261809Z 30009KT 25/07 A3004 RMK A01 T02520072  RH  032%=      5-min Rain = 0
KSC1 261810Z 30008KT 25/07 A3004 RMK A01 T02510073  RH  032%=      5-min Rain = 0
KSC1 261811Z 29006KT 25/07 A3004 RMK A01 T02500073  RH  032%=      5-min Rain = 0
KSC1 261812Z 28007KT 25/08 A3004 RMK A01 T02510075  RH  032%=      5-min Rain = 0
KSC1 261813Z 24006KT 25/07 A3004 RMK A01 T02530073  RH  032%=      5-min Rain = 0
KSC1 261814Z 23006KT 25/07 A3004 RMK A01 T02520070  RH  031%=      5-min Rain = 0
KSC1 261815Z 22005KT 25/07 A3004 RMK A01 T02510073  RH  032%=      5-min Rain = 0
KSC1 261816Z 26003KT 25/07 A3004 RMK A01 T02520071  RH  031%=      5-min Rain = 0
KSC1 261817Z 30009KT 25/07 A3004 RMK A01 T02530073  RH  032%=      5-min Rain = 0
KSC1 261818Z 30010KT 25/07 A3004 RMK A01 T02540067  RH  030%=      5-min Rain = 0
KSC1 261819Z 29007KT 25/07 A3004 RMK A01 T02510065  RH  030%=      5-min Rain = 0
KSC1 261820Z 28007KT 25/07 A3004 RMK A01 T02490068  RH  031%=      5-min Rain = 0
KSC1 261821Z 26005KT 25/07 A3004 RMK A01 T02490067  RH  031%=      5-min Rain = 0
KSC1 261822Z 33006KT 25/07 A3004 RMK A01 T02510069  RH  031%=      5-min Rain = 0
KSC1 261823Z 33005KT 25/06 A3004 RMK A01 T02500064  RH  030%=      5-min Rain = 0
KSC1 261824Z 34005KT 25/07 A3004 RMK A01 T02480068  RH  032%=      5-min Rain = 0
KSC1 261825Z 31003KT 25/06 A3004 RMK A01 T02480064  RH  031%=      5-min Rain = 0
KSC1 261826Z 33002KT 25/07 A3004 RMK A01 T02470070  RH  032%=      5-min Rain = 0
KSC1 261827Z 31003KT 25/07 A3004 RMK A01 T02510072  RH  032%=      5-min Rain = 0
KSC1 261828Z 01004KT 25/07 A3004 RMK A01 T02540072  RH  031%=      5-min Rain = 0
KSC1 261829Z 01005KT 26/07 A3004 RMK A01 T02550073  RH  031%=      5-min Rain = 0
KSC1 261830Z 00004KT 26/07 A3004 RMK A01 T02570072  RH  031%=      5-min Rain = 0
KSC1 261831Z 36007KT 26/07 A3003 RMK A01 T02570072  RH  031%=      5-min Rain = 0
KSC1 261832Z 36004G9KT 26/07 A3003 RMK A01 T02560068  RH  030%=      5-min Rain = 0
KSC1 261833Z 01005KT 25/07 A3003 RMK A01 T02540070  RH  031%=      5-min Rain = 0
KSC1 261834Z 35005KT 25/07 A3003 RMK A01 T02530070  RH  031%=      5-min Rain = 0
KSC1 261835Z 31006KT 26/08 A3003 RMK A01 T02550077  RH  032%=      5-min Rain = 0
KSC1 261836Z 32007KT 26/08 A3003 RMK A01 T02600077  RH  031%=      5-min Rain = 0
KSC1 261837Z 32006KT 26/07 A3003 RMK A01 T02610068  RH  029%=      5-min Rain = 0
KSC1 261838Z 34006KT 26/07 A3003 RMK A01 T02580067  RH  030%=      5-min Rain = 0
KSC1 261839Z 33005KT 26/06 A3003 RMK A01 T02550064  RH  030%=      5-min Rain = 0
KSC1 261840Z 33004KT 25/07 A3003 RMK A01 T02530070  RH  031%=      5-min Rain = 0
KSC1 261841Z 36005KT 26/07 A3003 RMK A01 T02550067  RH  030%=      5-min Rain = 0
KSC1 261842Z 04006KT 26/07 A3003 RMK A01 T02560068  RH  030%=      5-min Rain = 0
KSC1 261843Z 00007KT 26/07 A3003 RMK A01 T02590068  RH  030%=      5-min Rain = 0
KSC1 261844Z 33006KT 26/07 A3003 RMK A01 T02590068  RH  029%=      5-min Rain = 0
KSC1 261845Z 35006KT 26/07 A3003 RMK A01 T02580069  RH  030%=      5-min Rain = 0
KSC1 261846Z 03008KT 26/07 A3003 RMK A01 T02570067  RH  030%=      5-min Rain = 0
KSC1 261847Z 35005KT 26/07 A3003 RMK A01 T02580072  RH  031%=      5-min Rain = 0
KSC1 261848Z 33004KT 26/07 A3003 RMK A01 T02610069  RH  030%=      5-min Rain = 0
KSC1 261849Z 33003KT 26/07 A3003 RMK A01 T02600068  RH  029%=      5-min Rain = 0
KSC1 261850Z 33004KT 26/07 A3003 RMK A01 T02600071  RH  030%=      5-min Rain = 0
KSC1 261851Z 34002KT 26/07 A3002 RMK A01 T02600067  RH  029%=      5-min Rain = 0
KSC1 261852Z 36007KT 26/07 A3002 RMK A01 T02590071  RH  030%=      5-min Rain = 0
KSC1 261853Z 33005G10KT 26/07 A3002 RMK A01 T02590067  RH  029%=      5-min Rain = 0
KSC1 261854Z 33006KT 26/07 A3002 RMK A01 T02590073  RH  031%=      5-min Rain = 0
KSC1 261855Z 33006KT 26/07 A3002 RMK A01 T02610072  RH  030%=      5-min Rain = 0
KSC1 261856Z 35006KT 26/07 A3002 RMK A01 T02640071  RH  029%=      5-min Rain = 0
KSC1 261857Z 00007KT 27/07 A3002 RMK A01 T02650065  RH  028%=      5-min Rain = 0
KSC1 261858Z 02004KT 26/06 A3002 RMK A01 T02640063  RH  028%=      5-min Rain = 0
KSC1 261859Z 00004KT 26/06 A3002 RMK A01 T02620062  RH  028%=      5-min Rain = 0
KSC1 261900Z 04006KT 26/06 A3002 RMK A01 T02610064  RH  028%=      5-min Rain = 0
KSC1 261901Z 07004KT 26/06 A3002 RMK A01 T02590058  RH  027%=      5-min Rain = 0
KSC1 261902Z 05003KT 26/06 A3002 RMK A01 T02580063  RH  029%=      5-min Rain = 0
KSC1 261903Z 35006KT 26/07 A3002 RMK A01 T02600065  RH  029%=      5-min Rain = 0
KSC1 261904Z 35007KT 26/06 A3002 RMK A01 T02640064  RH  028%=      5-min Rain = 0
KSC1 261905Z 35006KT 26/06 A3002 RMK A01 T02620060  RH  027%=      5-min Rain = 0
KSC1 261906Z 34007KT 26/06 A3002 RMK A01 T02600062  RH  028%=      5-min Rain = 0
KSC1 261907Z 34007KT 26/06 A3002 RMK A01 T02600064  RH  029%=      5-min Rain = 0
KSC1 261908Z 34011KT 26/07 A3002 RMK A01 T02590067  RH  029%=      5-min Rain = 0
KSC1 261909Z 34009KT 26/07 A3002 RMK A01 T02600068  RH  029%=      5-min Rain = 0
KSC1 261910Z 31008KT 26/07 A3002 RMK A01 T02610067  RH  029%=      5-min Rain = 0
KSC1 261911Z 33006KT 26/07 A3002 RMK A01 T02610067  RH  029%=      5-min Rain = 0
KSC1 261912Z 34008KT 26/07 A3002 RMK A01 T02610067  RH  029%=      5-min Rain = 0
KSC1 261913Z 36006KT 26/07 A3002 RMK A01 T02610065  RH  029%=      5-min Rain = 0
KSC1 261914Z 00006KT 26/06 A3002 RMK A01 T02580059  RH  028%=      5-min Rain = 0
KSC1 261915Z 35006KT 26/06 A3002 RMK A01 T02550061  RH  029%=      5-min Rain = 0
KSC1 261916Z 35005KT 26/06 A3002 RMK A01 T02550061  RH  029%=      5-min Rain = 0
KSC1 261917Z 01004KT 25/06 A3002 RMK A01 T02540061  RH  029%=      5-min Rain = 0
KSC1 261918Z 01005KT 26/06 A3002 RMK A01 T02550059  RH  029%=      5-min Rain = 0
KSC1 261919Z 01003KT 26/06 A3002 RMK A01 T02550058  RH  028%=      5-min Rain = 0
KSC1 261920Z 31002KT 25/06 A3002 RMK A01 T02540058  RH  028%=      5-min Rain = 0
KSC1 261921Z 15002KT 26/06 A3002 RMK A01 T02550059  RH  028%=      5-min Rain = 0
KSC1 261922Z 06003KT 26/06 A3001 RMK A01 T02570062  RH  029%=      5-min Rain = 0
KSC1 261923Z 08006KT 26/06 A3001 RMK A01 T02600062  RH  028%=      5-min Rain = 0
KSC1 261924Z 08004KT 26/06 A3001 RMK A01 T02600059  RH  028%=      5-min Rain = 0
KSC1 261925Z 08003KT 26/06 A3001 RMK A01 T02590056  RH  027%=      5-min Rain = 0
KSC1 261926Z 02002KT 26/06 A3001 RMK A01 T02570059  RH  028%=      5-min Rain = 0
KSC1 261927Z 00002KT 26/06 A3001 RMK A01 T02580062  RH  029%=      5-min Rain = 0
KSC1 261928Z 33003KT 26/06 A3001 RMK A01 T02610064  RH  028%=      5-min Rain = 0
KSC1 261929Z 33005KT 26/07 A3001 RMK A01 T02630066  RH  028%=      5-min Rain = 0
KSC1 261930Z 33006KT 27/06 A3001 RMK A01 T02650064  RH  028%=      5-min Rain = 0
KSC1 261931Z 31007KT 27/06 A3001 RMK A01 T02650063  RH  028%=      5-min Rain = 0
KSC1 261932Z 31009KT 27/06 A3001 RMK A01 T02660061  RH  027%=      5-min Rain = 0
KSC1 261933Z 31009KT 27/06 A3001 RMK A01 T02650060  RH  027%=      5-min Rain = 0
KSC1 261934Z 31011KT 26/05 A3001 RMK A01 T02630054  RH  026%=      5-min Rain = 0
KSC1 261935Z 31006KT 26/05 A3001 RMK A01 T02600052  RH  026%=      5-min Rain = 0
KSC1 261936Z 31005KT 26/06 A3001 RMK A01 T02590056  RH  027%=      5-min Rain = 0
KSC1 261937Z 31004KT 26/06 A3001 RMK A01 T02610055  RH  027%=      5-min Rain = 0
KSC1 261938Z 31007KT 26/06 A3001 RMK A01 T02630057  RH  027%=      5-min Rain = 0
KSC1 261939Z 32007KT 26/06 A3001 RMK A01 T02630060  RH  027%=      5-min Rain = 0
KSC1 261940Z 31010KT 27/07 A3001 RMK A01 T02650065  RH  028%=      5-min Rain = 0
KSC1 261941Z 29008KT 27/06 A3001 RMK A01 T02670059  RH  027%=      5-min Rain = 0
KSC1 261942Z 26006KT 27/06 A3001 RMK A01 T02650056  RH  026%=      5-min Rain = 0
KSC1 261943Z 25006KT 26/06 A3001 RMK A01 T02640058  RH  027%=      5-min Rain = 0
KSC1 261944Z 30008KT 27/06 A3001 RMK A01 T02660064  RH  028%=      5-min Rain = 0
KSC1 261945Z 29007KT 27/06 A3001 RMK A01 T02680061  RH  027%=      5-min Rain = 0
KSC1 261946Z 28006KT 27/06 A3001 RMK A01 T02660055  RH  026%=      5-min Rain = 0
KSC1 261947Z 30007KT 26/06 A3001 RMK A01 T02610055  RH  027%=      5-min Rain = 0
KSC1 261948Z 29003KT 26/05 A30 RMK A01 T02590054  RH  027%=      5-min Rain = 0
KSC1 261949Z 21002KT 26/06 A30 RMK A01 T02580056  RH  027%=      5-min Rain = 0
KSC1 261950Z 25001KT 26/06 A30 RMK A01 T02600056  RH  027%=      5-min Rain = 0
KSC1 261951Z 25003KT 26/06 A30 RMK A01 T02620061  RH  028%=      5-min Rain = 0
KSC1 261952Z 27007KT 26/06 A30 RMK A01 T02640060  RH  027%=      5-min Rain = 0
KSC1 261953Z 30004KT 27/06 A30 RMK A01 T02650058  RH  027%=      5-min Rain = 0
KSC1 261954Z 30002KT 27/06 A30 RMK A01 T02650062  RH  027%=      5-min Rain = 0
KSC1 261955Z 30005KT 27/06 A30 RMK A01 T02680063  RH  027%=      5-min Rain = 0
KSC1 261956Z 29006KT 27/06 A30 RMK A01 T02690059  RH  026%=      5-min Rain = 0
KSC1 261957Z 27007KT 27/06 A30 RMK A01 T02690057  RH  026%=      5-min Rain = 0
KSC1 261958Z 28006KT 27/06 A30 RMK A01 T02700060  RH  026%=      5-min Rain = 0
KSC1 261959Z 27005KT 27/06 A30 RMK A01 T02710057  RH  026%=      5-min Rain = 0
KSC1 262000Z 35009G14KT 27/06 A30 RMK A01 T02710056  RH  025%=      5-min Rain = 0
KSC1 262001Z 01008KT 27/05 A30 RMK A01 T02710051  RH  024%=      5-min Rain = 0
KSC1 262002Z 02006KT 27/05 A30 RMK A01 T02680048  RH  024%=      5-min Rain = 0
KSC1 262003Z 01006KT 27/05 A30 RMK A01 T02670048  RH  025%=      5-min Rain = 0
KSC1 262004Z 01007KT 27/05 A30 RMK A01 T02680047  RH  024%=      5-min Rain = 0
KSC1 262005Z 00006KT 27/05 A30 RMK A01 T02690045  RH  024%=      5-min Rain = 0
KSC1 262006Z 36006KT 27/04 A30 RMK A01 T02660044  RH  024%=      5-min Rain = 0
KSC1 262007Z 34006KT 27/05 A30 RMK A01 T02650048  RH  025%=      5-min Rain = 0
KSC1 262008Z 33006KT 27/05 A30 RMK A01 T02650051  RH  025%=      5-min Rain = 0
KSC1 262009Z 00006KT 27/06 A30 RMK A01 T02670055  RH  026%=      5-min Rain = 0
KSC1 262010Z 01006KT 27/05 A30 RMK A01 T02680053  RH  025%=      5-min Rain = 0
KSC1 262011Z 35006KT 27/05 A2999 RMK A01 T02690054  RH  025%=      5-min Rain = 0
KSC1 262012Z 33007KT 27/06 A2999 RMK A01 T02710055  RH  025%=      5-min Rain = 0
KSC1 262013Z 35007KT 27/05 A2999 RMK A01 T02700052  RH  025%=      5-min Rain = 0
KSC1 262014Z 00007KT 27/05 A2999 RMK A01 T02680050  RH  025%=      5-min Rain = 0
KSC1 262015Z 35006KT 27/05 A2999 RMK A01 T02660052  RH  025%=      5-min Rain = 0
KSC1 262016Z 31007KT 27/06 A2999 RMK A01 T02670058  RH  026%=      5-min Rain = 0
KSC1 262017Z 31005KT 27/06 A30 RMK A01 T02720060  RH  026%=      5-min Rain = 0
KSC1 262018Z 32005KT 28/06 A30 RMK A01 T02750055  RH  025%=      5-min Rain = 0
KSC1 262019Z 34004KT 27/05 A2999 RMK A01 T02740052  RH  024%=      5-min Rain = 0
KSC1 262020Z 31003KT 27/05 A2999 RMK A01 T02720049  RH  024%=      5-min Rain = 0
KSC1 262021Z 28004KT 27/05 A2999 RMK A01 T02700049  RH  024%=      5-min Rain = 0
KSC1 262022Z 26004KT 27/05 A2999 RMK A01 T02690050  RH  025%=      5-min Rain = 0
KSC1 262023Z 23004KT 27/05 A2999 RMK A01 T02690051  RH  025%=      5-min Rain = 0
KSC1 262024Z 26004KT 27/05 A2999 RMK A01 T02700051  RH  025%=      5-min Rain = 0
KSC1 262025Z 27006KT 27/05 A2999 RMK A01 T02710054  RH  025%=      5-min Rain = 0
KSC1 262026Z 26006KT 27/05 A2999 RMK A01 T02700051  RH  025%=      5-min Rain = 0
KSC1 262027Z 29005KT 27/05 A2999 RMK A01 T02680050  RH  025%=      5-min Rain = 0
KSC1 262028Z 31004KT 27/05 A2999 RMK A01 T02670052  RH  025%=      5-min Rain = 0
KSC1 262029Z 30002KT 27/05 A2999 RMK A01 T02680053  RH  025%=      5-min Rain = 0
KSC1 262030Z 31002G7KT 27/05 A2999 RMK A01 T02700053  RH  025%=      5-min Rain = 0
KSC1 262031Z 33007KT 27/05 A2999 RMK A01 T02710052  RH  025%=      5-min Rain = 0
KSC1 262032Z 35006KT 27/05 A2999 RMK A01 T02720049  RH  024%=      5-min Rain = 0
KSC1 262033Z 35008KT 27/05 A2999 RMK A01 T02710049  RH  024%=      5-min Rain = 0
KSC1 262034Z 35009KT 27/05 A2999 RMK A01 T02710049  RH  024%=      5-min Rain = 0
KSC1 262035Z 35009KT 27/05 A2999 RMK A01 T02710048  RH  024%=      5-min Rain = 0
KSC1 262036Z 33008KT 27/05 A2999 RMK A01 T02690048  RH  024%=      5-min Rain = 0
KSC1 262037Z 01005KT 27/05 A2999 RMK A01 T02690046  RH  024%=      5-min Rain = 0
KSC1 262038Z 00005KT 27/05 A2999 RMK A01 T02680045  RH  024%=      5-min Rain = 0
KSC1 262039Z 34004KT 27/05 A2999 RMK A01 T02680045  RH  024%=      5-min Rain = 0
KSC1 262040Z 01001KT 27/04 A2999 RMK A01 T02680043  RH  024%=      5-min Rain = 0
KSC1 262041Z 01002KT 27/04 A2998 RMK A01 T02670043  RH  024%=      5-min Rain = 0
KSC1 262042Z 00003KT 27/05 A2998 RMK A01 T02680045  RH  024%=      5-min Rain = 0
KSC1 262043Z 36003KT 27/05 A2998 RMK A01 T02690045  RH  024%=      5-min Rain = 0
KSC1 262044Z 03007KT 27/05 A2998 RMK A01 T02700048  RH  024%=      5-min Rain = 0
KSC1 262045Z 04005KT 27/05 A2998 RMK A01 T02710049  RH  024%=      5-min Rain = 0
KSC1 262046Z 04007KT 27/05 A2998 RMK A01 T02740054  RH  025%=      5-min Rain = 0
KSC1 262047Z 07003KT 28/05 A2998 RMK A01 T02770054  RH  024%=      5-min Rain = 0
KSC1 262048Z 10005KT 28/05 A2998 RMK A01 T02800050  RH  023%=      5-min Rain = 0
KSC1 262049Z 32004KT 28/05 A2998 RMK A01 T02810052  RH  023%=      5-min Rain = 0
KSC1 262050Z 29005KT 28/05 A2998 RMK A01 T02820050  RH  023%=      5-min Rain = 0
KSC1 262051Z 25004KT 28/05 A2998 RMK A01 T02790048  RH  023%=      5-min Rain = 0
KSC1 262052Z 25003KT 28/05 A2998 RMK A01 T02780046  RH  023%=      5-min Rain = 0
KSC1 262053Z 31003KT 28/05 A2998 RMK A01 T02770048  RH  023%=      5-min Rain = 0
KSC1 262054Z 00005KT 28/05 A2998 RMK A01 T02780053  RH  024%=      5-min Rain = 0
KSC1 262055Z 02003KT 28/05 A2998 RMK A01 T02800052  RH  023%=      5-min Rain = 0
KSC1 262056Z 34003KT 28/05 A2998 RMK A01 T02810051  RH  023%=      5-min Rain = 0
KSC1 262057Z 32005KT 28/05 A2998 RMK A01 T02810053  RH  023%=      5-min Rain = 0
KSC1 262058Z 29005KT 28/05 A2998 RMK A01 T02800049  RH  023%=      5-min Rain = 0
KSC1 262059Z 27004KT 28/05 A2998 RMK A01 T02780048  RH  023%=      5-min Rain = 0
KSC1 262100Z 26002KT 28/05 A2998 RMK A01 T02760045  RH  023%=      5-min Rain = 0
KSC1 262101Z 31003KT 28/05 A2998 RMK A01 T02770050  RH  023%=      5-min Rain = 0
KSC1 262102Z 34002KT 28/05 A2998 RMK A01 T02790046  RH  023%=      5-min Rain = 0
KSC1 262103Z 07001KT 28/05 A2998 RMK A01 T02780045  RH  023%=      5-min Rain = 0
KSC1 262104Z 35002KT 28/05 A2998 RMK A01 T02760047  RH  023%=      5-min Rain = 0
KSC1 262105Z 00005KT 28/05 A2998 RMK A01 T02770051  RH  024%=      5-min Rain = 0
KSC1 262106Z 02008KT 28/05 A2998 RMK A01 T02790052  RH  024%=      5-min Rain = 0
KSC1 262107Z 34011KT 28/05 A2998 RMK A01 T02800053  RH  024%=      5-min Rain = 0
KSC1 262108Z 34010G15KT 28/05 A2997 RMK A01 T02810051  RH  023%=      5-min Rain = 0
KSC1 262109Z 35009KT 28/05 A2997 RMK A01 T02800054  RH  024%=      5-min Rain = 0
KSC1 262110Z 34007KT 28/05 A2997 RMK A01 T02810054  RH  023%=      5-min Rain = 0
KSC1 262111Z 32009KT 28/05 A2997 RMK A01 T02810053  RH  023%=      5-min Rain = 0
KSC1 262112Z 33008KT 28/05 A2997 RMK A01 T02800052  RH  023%=      5-min Rain = 0
KSC1 262113Z 34008KT 28/05 A2997 RMK A01 T02790050  RH  023%=      5-min Rain = 0
KSC1 262114Z 34005KT 28/05 A2997 RMK A01 T02780051  RH  023%=      5-min Rain = 0
KSC1 262115Z 34006KT 28/05 A2997 RMK A01 T02790052  RH  024%=      5-min Rain = 0
KSC1 262116Z 34007KT 28/05 A2997 RMK A01 T02800047  RH  023%=      5-min Rain = 0
KSC1 262117Z 34007KT 28/05 A2997 RMK A01 T02780047  RH  023%=      5-min Rain = 0
KSC1 262118Z 33007KT 28/05 A2997 RMK A01 T02770047  RH  023%=      5-min Rain = 0
KSC1 262119Z 34006KT 28/05 A2997 RMK A01 T02770052  RH  024%=      5-min Rain = 0
KSC1 262120Z 31006KT 28/05 A2997 RMK A01 T02800053  RH  024%=      5-min Rain = 0
KSC1 262121Z 28005KT 28/05 A2997 RMK A01 T02810050  RH  023%=      5-min Rain = 0
KSC1 262122Z 32003KT 28/05 A2997 RMK A01 T02810052  RH  023%=      5-min Rain = 0
KSC1 262123Z 33003KT 28/05 A2997 RMK A01 T02820049  RH  023%=      5-min Rain = 0
KSC1 262124Z 27004KT 28/05 A2997 RMK A01 T02820048  RH  023%=      5-min Rain = 0
KSC1 262125Z 25002KT 28/05 A2997 RMK A01 T02830049  RH  023%=      5-min Rain = 0
KSC1 262126Z 26003KT 28/05 A2997 RMK A01 T02830047  RH  022%=      5-min Rain = 0
KSC1 262127Z 26002KT 28/05 A2996 RMK A01 T02830046  RH  022%=      5-min Rain = 0
KSC1 262128Z 20001KT 28/05 A2997 RMK A01 T02840051  RH  023%=      5-min Rain = 0
KSC1 262129Z 15003KT 28/05 A2996 RMK A01 T02840046  RH  022%=      5-min Rain = 0
KSC1 262130Z 09004KT 28/04 A2996 RMK A01 T02840044  RH  022%=      5-min Rain = 0
KSC1 262131Z 05005KT 28/05 A2996 RMK A01 T02820048  RH  022%=      5-min Rain = 0
KSC1 262132Z 03007KT 28/05 A2996 RMK A01 T02820049  RH  023%=      5-min Rain = 0
KSC1 262133Z 06004KT 28/05 A2996 RMK A01 T02820053  RH  023%=      5-min Rain = 0
KSC1 262134Z 28009KT 28/06 A2996 RMK A01 T02840055  RH  023%=      5-min Rain = 0
KSC1 262135Z 25009KT 29/05 A2996 RMK A01 T02870052  RH  022%=      5-min Rain = 0
KSC1 262136Z 25005KT 29/05 A2996 RMK A01 T02860053  RH  023%=      5-min Rain = 0
KSC1 262137Z 25005KT 29/06 A2996 RMK A01 T02860056  RH  023%=      5-min Rain = 0
KSC1 262138Z 30009G15KT 29/05 A2996 RMK A01 T02890054  RH  023%=      5-min Rain = 0
KSC1 262139Z 29008KT 29/05 A2996 RMK A01 T02880052  RH  022%=      5-min Rain = 0
KSC1 262140Z 29008KT 28/05 A2996 RMK A01 T02840048  RH  022%=      5-min Rain = 0
KSC1 262141Z 28007KT 28/05 A2996 RMK A01 T02810049  RH  023%=      5-min Rain = 0
KSC1 262142Z 28007KT 28/05 A2996 RMK A01 T02810051  RH  023%=      5-min Rain = 0
KSC1 262143Z 28008KT 28/05 A2996 RMK A01 T02810047  RH  023%=      5-min Rain = 0
KSC1 262144Z 28008KT 28/05 A2996 RMK A01 T02800046  RH  023%=      5-min Rain = 0
KSC1 262145Z 29007KT 28/05 A2996 RMK A01 T02790046  RH  023%=      5-min Rain = 0
KSC1 262146Z 30005KT 28/05 A2996 RMK A01 T02780049  RH  023%=      5-min Rain = 0
KSC1 262147Z 28004KT 28/05 A2996 RMK A01 T02800049  RH  023%=      5-min Rain = 0
KSC1 262148Z 25004KT 28/05 A2996 RMK A01 T02810046  RH  022%=      5-min Rain = 0
KSC1 262149Z 23003KT 28/04 A2996 RMK A01 T02810043  RH  022%=      5-min Rain = 0
KSC1 262150Z 21003KT 28/05 A2996 RMK A01 T02800047  RH  022%=      5-min Rain = 0
KSC1 262151Z 21002KT 28/04 A2996 RMK A01 T02810044  RH  022%=      5-min Rain = 0
KSC1 262152Z 28003KT 28/04 A2996 RMK A01 T02810044  RH  022%=      5-min Rain = 0
KSC1 262153Z 26004KT 28/05 A2996 RMK A01 T02800047  RH  023%=      5-min Rain = 0
KSC1 262154Z 27004KT 28/05 A2996 RMK A01 T02790047  RH  023%=      5-min Rain = 0
KSC1 262155Z 31004KT 28/05 A2996 RMK A01 T02780052  RH  024%=      5-min Rain = 0
KSC1 262156Z 31006KT 28/05 A2996 RMK A01 T02780051  RH  024%=      5-min Rain = 0
KSC1 262157Z 28004KT 27/04 A2996 RMK A01 T02730043  RH  023%=      5-min Rain = 0
KSC1 262158Z 23002KT 27/04 A2996 RMK A01 T02700042  RH  023%=      5-min Rain = 0
KSC1 262159Z 01003KT 27/05 A2996 RMK A01 T02690045  RH  024%=      5-min Rain = 0
KSC1 262200Z 31003KT 27/05 A2996 RMK A01 T02690046  RH  024%=      5-min Rain = 0
KSC1 262201Z 32003KT 27/04 A2996 RMK A01 T02690044  RH  024%=      5-min Rain = 0
KSC1 262202Z 32004KT 27/05 A2996 RMK A01 T02700046  RH  024%=      5-min Rain = 0
KSC1 262203Z 32005KT 27/05 A2996 RMK A01 T02730047  RH  024%=      5-min Rain = 0
KSC1 262204Z 30005KT 28/05 A2996 RMK A01 T02750049  RH  024%=      5-min Rain = 0
KSC1 262205Z 29007KT 28/05 A2996 RMK A01 T02780047  RH  023%=      5-min Rain = 0
KSC1 262206Z 30006KT 28/05 A2996 RMK A01 T02790047  RH  023%=      5-min Rain = 0
KSC1 262207Z 31007KT 28/05 A2996 RMK A01 T02780049  RH  023%=      5-min Rain = 0
KSC1 262208Z 35007KT 28/05 A2996 RMK A01 T02780051  RH  024%=      5-min Rain = 0
KSC1 262209Z 35007KT 28/05 A2996 RMK A01 T02760051  RH  024%=      5-min Rain = 0
KSC1 262210Z 32004KT 28/05 A2996 RMK A01 T02750054  RH  024%=      5-min Rain = 0
KSC1 262211Z 32004KT 28/05 A2996 RMK A01 T02760054  RH  024%=      5-min Rain = 0
KSC1 262212Z 32006KT 28/05 A2996 RMK A01 T02760054  RH  024%=      5-min Rain = 0
KSC1 262213Z 31004KT 28/05 A2996 RMK A01 T02750053  RH  024%=      5-min Rain = 0
KSC1 262214Z 32005KT 28/06 A2995 RMK A01 T02760055  RH  025%=      5-min Rain = 0
KSC1 262215Z 31005KT 28/05 A2995 RMK A01 T02780052  RH  024%=      5-min Rain = 0
KSC1 262216Z 32003KT 28/05 A2995 RMK A01 T02780048  RH  023%=      5-min Rain = 0
KSC1 262217Z 30003KT 28/05 A2995 RMK A01 T02780049  RH  023%=      5-min Rain = 0
KSC1 262218Z 31003KT 28/05 A2995 RMK A01 T02780046  RH  023%=      5-min Rain = 0
KSC1 262219Z 31004KT 28/05 A2995 RMK A01 T02780046  RH  023%=      5-min Rain = 0
KSC1 262220Z 29005KT 28/05 A2995 RMK A01 T02780047  RH  023%=      5-min Rain = 0
KSC1 262221Z 30005KT 28/05 A2995 RMK A01 T02780047  RH  023%=      5-min Rain = 0
KSC1 262222Z 32002KT 28/05 A2995 RMK A01 T02770046  RH  023%=      5-min Rain = 0
KSC1 262223Z 34003KT 28/05 A2995 RMK A01 T02790051  RH  023%=      5-min Rain = 0
KSC1 262224Z 35002KT 28/05 A2995 RMK A01 T02820049  RH  023%=      5-min Rain = 0
KSC1 262225Z 34004KT 28/05 A2995 RMK A01 T02820052  RH  023%=      5-min Rain = 0
KSC1 262226Z 35003KT 28/05 A2995 RMK A01 T02830048  RH  022%=      5-min Rain = 0
KSC1 262227Z 30003KT 28/05 A2995 RMK A01 T02830048  RH  022%=      5-min Rain = 0
KSC1 262228Z 25006KT 28/05 A2995 RMK A01 T02830052  RH  023%=      5-min Rain = 0
KSC1 262229Z 27008KT 29/05 A2995 RMK A01 T02850052  RH  023%=      5-min Rain = 0
KSC1 262230Z 27008KT 29/05 A2995 RMK A01 T02860050  RH  022%=      5-min Rain = 0
KSC1 262231Z 27005KT 28/05 A2995 RMK A01 T02840046  RH  022%=      5-min Rain = 0
KSC1 262232Z 26003KT 28/05 A2995 RMK A01 T02810047  RH  022%=      5-min Rain = 0
KSC1 262233Z 31002KT 28/05 A2995 RMK A01 T02810048  RH  023%=      5-min Rain = 0
KSC1 262234Z 33001KT 28/05 A2995 RMK A01 T02820046  RH  022%=      5-min Rain = 0
KSC1 262235Z 11004KT 28/04 A2995 RMK A01 T02830044  RH  022%=      5-min Rain = 0
KSC1 262236Z 09004KT 28/04 A2995 RMK A01 T02810044  RH  022%=      5-min Rain = 0
KSC1 262237Z 06002KT 28/05 A2995 RMK A01 T02810045  RH  022%=      5-min Rain = 0
KSC1 262238Z 03001KT 28/04 A2995 RMK A01 T02800043  RH  022%=      5-min Rain = 0
KSC1 262239Z 01003KT 28/05 A2995 RMK A01 T02780045  RH  023%=      5-min Rain = 0
KSC1 262240Z 31002KT 28/05 A2995 RMK A01 T02760046  RH  023%=      5-min Rain = 0
KSC1 262241Z 26004KT 28/05 A2995 RMK A01 T02750052  RH  024%=      5-min Rain = 0
KSC1 262242Z 26006KT 28/05 A2995 RMK A01 T02770050  RH  023%=      5-min Rain = 0
KSC1 262243Z 25007KT 28/05 A2995 RMK A01 T02770047  RH  023%=      5-min Rain = 0
KSC1 262244Z 23005KT 28/05 A2995 RMK A01 T02750047  RH  023%=      5-min Rain = 0
KSC1 262245Z 23006KT 27/05 A2995 RMK A01 T02740046  RH  023%=      5-min Rain = 0
KSC1 262246Z 25004KT 27/05 A2995 RMK A01 T02740046  RH  023%=      5-min Rain = 0
KSC1 262247Z 26003KT 28/05 A2995 RMK A01 T02750046  RH  023%=      5-min Rain = 0
KSC1 262248Z 29003KT 28/05 A2995 RMK A01 T02760047  RH  023%=      5-min Rain = 0
KSC1 262249Z 29003KT 28/05 A2995 RMK A01 T02760049  RH  023%=      5-min Rain = 0
KSC1 262250Z 35002KT 28/05 A2995 RMK A01 T02770053  RH  024%=      5-min Rain = 0
KSC1 262251Z 36003KT 28/05 A2995 RMK A01 T02770053  RH  024%=      5-min Rain = 0
KSC1 262252Z 35004KT 28/05 A2995 RMK A01 T02770053  RH  024%=      5-min Rain = 0
KSC1 262253Z 00005KT 28/05 A2995 RMK A01 T02760052  RH  024%=      5-min Rain = 0
KSC1 262254Z 35005KT 27/05 A2995 RMK A01 T02740051  RH  024%=      5-min Rain = 0
KSC1 262255Z 35005KT 27/05 A2995 RMK A01 T02730050  RH  024%=      5-min Rain = 0
KSC1 262256Z 36004KT 27/05 A2995 RMK A01 T02730050  RH  024%=      5-min Rain = 0
KSC1 262257Z 35004KT 28/05 A2995 RMK A01 T02750049  RH  024%=      5-min Rain = 0
KSC1 262258Z 35004KT 27/05 A2995 RMK A01 T02740049  RH  024%=      5-min Rain = 0
KSC1 262259Z 32002KT 28/05 A2995 RMK A01 T02750054  RH  024%=      5-min Rain = 0
KSC1 262300Z 33001KT 28/05 A2995 RMK A01 T02780048  RH  023%=      5-min Rain = 0
KSC1 262301Z 01001KT 28/05 A2995 RMK A01 T02790046  RH  023%=      5-min Rain = 0
KSC1 262302Z 33003KT 28/05 A2995 RMK A01 T02800050  RH  023%=      5-min Rain = 0
KSC1 262303Z 33002KT 28/05 A2995 RMK A01 T02810046  RH  022%=      5-min Rain = 0
KSC1 262304Z 31000KT 28/05 A2995 RMK A01 T02800046  RH  022%=      5-min Rain = 0
KSC1 262305Z 12001KT 28/05 A2995 RMK A01 T02810049  RH  023%=      5-min Rain = 0
KSC1 262306Z 11003KT 28/05 A2995 RMK A01 T02830049  RH  023%=      5-min Rain = 0
KSC1 262307Z 13002KT 28/05 A2995 RMK A01 T02840048  RH  022%=      5-min Rain = 0
KSC1 262308Z 30004KT 28/05 A2995 RMK A01 T02840050  RH  023%=      5-min Rain = 0
KSC1 262309Z 30003KT 28/05 A2995 RMK A01 T02840048  RH  022%=      5-min Rain = 0
KSC1 262310Z 26002KT 28/05 A2995 RMK A01 T02820046  RH  022%=      5-min Rain = 0
KSC1 262311Z 21002KT 28/04 A2995 RMK A01 T02800044  RH  022%=      5-min Rain = 0
KSC1 262312Z 20004KT 28/04 A2994 RMK A01 T02790044  RH  022%=      5-min Rain = 0
KSC1 262313Z 21004KT 28/05 A2994 RMK A01 T02780047  RH  023%=      5-min Rain = 0
KSC1 262314Z 14001KT 28/05 A2994 RMK A01 T02790050  RH  023%=      5-min Rain = 0
KSC1 262315Z 17001KT 28/05 A2994 RMK A01 T02820053  RH  023%=      5-min Rain = 0
KSC1 262316Z 35002KT 29/05 A2994 RMK A01 T02860052  RH  023%=      5-min Rain = 0
KSC1 262317Z 34004KT 29/05 A2995 RMK A01 T02870049  RH  022%=      5-min Rain = 0
KSC1 262318Z 31003KT 29/05 A2994 RMK A01 T02850048  RH  022%=      5-min Rain = 0
KSC1 262319Z 29004KT 28/05 A2994 RMK A01 T02840050  RH  022%=      5-min Rain = 0
KSC1 262320Z 28002KT 28/05 A2995 RMK A01 T02840048  RH  022%=      5-min Rain = 0
KSC1 262321Z 27004KT 28/05 A2995 RMK A01 T02830049  RH  023%=      5-min Rain = 0
KSC1 262322Z 28005KT 28/05 A2994 RMK A01 T02830051  RH  023%=      5-min Rain = 0
KSC1 262323Z 26005KT 28/05 A2994 RMK A01 T02830050  RH  023%=      5-min Rain = 0
KSC1 262324Z 24003KT 28/05 A2995 RMK A01 T02820049  RH  023%=      5-min Rain = 0
KSC1 262325Z 24003KT 28/05 A2995 RMK A01 T02820051  RH  023%=      5-min Rain = 0
KSC1 262326Z 32004KT 28/05 A2995 RMK A01 T02830050  RH  023%=      5-min Rain = 0
KSC1 262327Z 31005KT 29/06 A2995 RMK A01 T02850056  RH  023%=      5-min Rain = 0
KSC1 262328Z 32005KT 29/05 A2995 RMK A01 T02870052  RH  022%=      5-min Rain = 0
KSC1 262329Z 32005KT 29/05 A2995 RMK A01 T02870051  RH  022%=      5-min Rain = 0
KSC1 262330Z 34004KT 29/05 A2995 RMK A01 T02850049  RH  022%=      5-min Rain = 0
KSC1 262331Z 34004KT 28/05 A2995 RMK A01 T02830047  RH  022%=      5-min Rain = 0
KSC1 262332Z 33005KT 28/05 A2995 RMK A01 T02820049  RH  023%=      5-min Rain = 0
KSC1 262333Z 35004KT 28/05 A2995 RMK A01 T02810049  RH  023%=      5-min Rain = 0
KSC1 262334Z 35002KT 28/05 A2995 RMK A01 T02810047  RH  022%=      5-min Rain = 0
KSC1 262335Z 01002KT 28/05 A2995 RMK A01 T02810046  RH  022%=      5-min Rain = 0
KSC1 262336Z 01002KT 28/05 A2995 RMK A01 T02800046  RH  022%=      5-min Rain = 0
KSC1 262337Z 03003KT 28/05 A2995 RMK A01 T02800047  RH  023%=      5-min Rain = 0
KSC1 262338Z 03003KT 28/05 A2995 RMK A01 T02800045  RH  022%=      5-min Rain = 0
KSC1 262339Z 01002KT 28/05 A2995 RMK A01 T02800047  RH  023%=      5-min Rain = 0
KSC1 262340Z 26001KT 28/05 A2995 RMK A01 T02800046  RH  022%=      5-min Rain = 0
KSC1 262341Z 10001KT 28/05 A2995 RMK A01 T02810049  RH  023%=      5-min Rain = 0
KSC1 262342Z 09002KT 28/05 A2995 RMK A01 T02820047  RH  022%=      5-min Rain = 0
KSC1 262343Z 06002KT 28/05 A2995 RMK A01 T02830048  RH  022%=      5-min Rain = 0
KSC1 262344Z 03004KT 28/05 A2995 RMK A01 T02830049  RH  023%=      5-min Rain = 0
KSC1 262345Z 02004KT 28/05 A2994 RMK A01 T02830047  RH  022%=      5-min Rain = 0
KSC1 262346Z 03003KT 28/05 A2994 RMK A01 T02820050  RH  023%=      5-min Rain = 0
KSC1 262347Z 00002KT 28/05 A2994 RMK A01 T02810047  RH  022%=      5-min Rain = 0
KSC1 262348Z 34002KT 28/05 A2994 RMK A01 T02810046  RH  022%=      5-min Rain = 0
KSC1 262349Z 29001KT 28/05 A2994 RMK A01 T02810048  RH  023%=      5-min Rain = 0
KSC1 262350Z 27000KT 28/05 A2994 RMK A01 T02830050  RH  023%=      5-min Rain = 0
KSC1 262351Z 10002KT 29/05 A2994 RMK A01 T02850046  RH  022%=      5-min Rain = 0
KSC1 262352Z 11002KT 28/04 A2994 RMK A01 T02840044  RH  022%=      5-min Rain = 0
KSC1 262353Z 12001KT 28/05 A2994 RMK A01 T02820045  RH  022%=      5-min Rain = 0
KSC1 262354Z 14000KT 28/05 A2994 RMK A01 T02820045  RH  022%=      5-min Rain = 0
KSC1 262355Z 14000KT 28/04 A2994 RMK A01 T02820043  RH  022%=      5-min Rain = 0
KSC1 262356Z 05000KT 28/05 A2994 RMK A01 T02830045  RH  022%=      5-min Rain = 0
KSC1 262357Z 06002KT 28/05 A2994 RMK A01 T02830045  RH  022%=      5-min Rain = 0
KSC1 262358Z 05003KT 28/05 A2994 RMK A01 T02820047  RH  022%=      5-min Rain = 0
KSC1 262359Z 05003KT 28/05 A2994 RMK A01 T02810048  RH  023%=      5-min Rain = 0
KSC1 270000Z 04003KT 28/05 A2994 RMK A01 T02800046  RH  023%=      5-min Rain = 0
KSC1 270001Z 05002KT 28/05 A2994 RMK A01 T02780048  RH  023%=      5-min Rain = 0
KSC1 270002Z 04001KT 28/05 A2994 RMK A01 T02780049  RH  023%=      5-min Rain = 0
KSC1 270003Z 04001KT 28/05 A2994 RMK A01 T02780049  RH  023%=      5-min Rain = 0
KSC1 270004Z 04002KT 28/05 A2994 RMK A01 T02790048  RH  023%=      5-min Rain = 0
KSC1 270005Z 02003KT 28/05 A2994 RMK A01 T02790051  RH  023%=      5-min Rain = 0
KSC1 270006Z 08003KT 28/05 A2994 RMK A01 T02790051  RH  024%=      5-min Rain = 0
KSC1 270007Z 11003KT 28/05 A2994 RMK A01 T02790048  RH  023%=      5-min Rain = 0
KSC1 270008Z 13002KT 28/05 A2994 RMK A01 T02780048  RH  023%=      5-min Rain = 0
KSC1 270009Z 13003KT 28/05 A2994 RMK A01 T02780050  RH  023%=      5-min Rain = 0
KSC1 270010Z 09003KT 28/05 A2994 RMK A01 T02790053  RH  024%=      5-min Rain = 0
KSC1 270011Z 09003KT 28/05 A2994 RMK A01 T02790051  RH  023%=      5-min Rain = 0
KSC1 270012Z 09003KT 28/05 A2994 RMK A01 T02790051  RH  023%=      5-min Rain = 0
KSC1 270013Z 10004KT 28/05 A2994 RMK A01 T02790049  RH  023%=      5-min Rain = 0
KSC1 270014Z 07005KT 28/05 A2994 RMK A01 T02790050  RH  023%=      5-min Rain = 0
KSC1 270015Z 04003KT 28/05 A2994 RMK A01 T02770047  RH  023%=      5-min Rain = 0
KSC1 270016Z 03002KT 28/05 A2994 RMK A01 T02760045  RH  023%=      5-min Rain = 0
KSC1 270017Z 08002KT 28/05 A2994 RMK A01 T02760046  RH  023%=      5-min Rain = 0
KSC1 270018Z 10004KT 28/05 A2994 RMK A01 T02760048  RH  023%=      5-min Rain = 0
KSC1 270019Z 09005KT 28/05 A2994 RMK A01 T02760050  RH  024%=      5-min Rain = 0
KSC1 270020Z 07005KT 28/05 A2994 RMK A01 T02760053  RH  024%=      5-min Rain = 0
KSC1 270021Z 03005KT 28/05 A2994 RMK A01 T02770054  RH  024%=      5-min Rain = 0
KSC1 270022Z 01003KT 28/05 A2994 RMK A01 T02770053  RH  024%=      5-min Rain = 0
KSC1 270023Z 03004KT 28/05 A2994 RMK A01 T02770053  RH  024%=      5-min Rain = 0
KSC1 270024Z 05005KT 28/05 A2994 RMK A01 T02760052  RH  024%=      5-min Rain = 0
KSC1 270025Z 06006KT 28/05 A2994 RMK A01 T02760050  RH  024%=      5-min Rain = 0
KSC1 270026Z 07003KT 28/05 A2994 RMK A01 T02750047  RH  023%=      5-min Rain = 0
KSC1 270027Z 06003KT 27/05 A2994 RMK A01 T02740049  RH  024%=      5-min Rain = 0
KSC1 270028Z 04003KT 27/05 A2994 RMK A01 T02730052  RH  024%=      5-min Rain = 0
KSC1 270029Z 05004KT 27/06 A2994 RMK A01 T02730055  RH  025%=      5-min Rain = 0
KSC1 270030Z 08003KT 27/05 A2994 RMK A01 T02730051  RH  024%=      5-min Rain = 0
KSC1 270031Z 09003KT 27/05 A2994 RMK A01 T02740053  RH  024%=      5-min Rain = 0
KSC1 270032Z 10005KT 27/05 A2994 RMK A01 T02730053  RH  024%=      5-min Rain = 0
KSC1 270033Z 07005KT 27/05 A2994 RMK A01 T02730053  RH  025%=      5-min Rain = 0
KSC1 270034Z 05003KT 27/05 A2994 RMK A01 T02740050  RH  024%=      5-min Rain = 0
KSC1 270035Z 07003KT 27/05 A2994 RMK A01 T02730050  RH  024%=      5-min Rain = 0
KSC1 270036Z 06004KT 27/05 A2994 RMK A01 T02720053  RH  025%=      5-min Rain = 0
KSC1 270037Z 06004KT 27/05 A2994 RMK A01 T02720052  RH  024%=      5-min Rain = 0
KSC1 270038Z 06004KT 27/05 A2994 RMK A01 T02720053  RH  025%=      5-min Rain = 0
KSC1 270039Z 07005KT 27/05 A2994 RMK A01 T02710053  RH  025%=      5-min Rain = 0
KSC1 270040Z 06006KT 27/05 A2994 RMK A01 T02700051  RH  025%=      5-min Rain = 0
KSC1 270041Z 05006KT 27/05 A2994 RMK A01 T02680053  RH  025%=      5-min Rain = 0
KSC1 270042Z 05004KT 27/05 A2994 RMK A01 T02670052  RH  025%=      5-min Rain = 0
KSC1 270043Z 05004KT 27/05 A2994 RMK A01 T02660053  RH  026%=      5-min Rain = 0
KSC1 270044Z 06005KT 27/05 A2994 RMK A01 T02660054  RH  026%=      5-min Rain = 0
KSC1 270045Z 06004KT 27/05 A2994 RMK A01 T02650053  RH  026%=      5-min Rain = 0
KSC1 270046Z 06005KT 27/05 A2994 RMK A01 T02650053  RH  026%=      5-min Rain = 0
KSC1 270047Z 06005KT 27/05 A2994 RMK A01 T02650051  RH  025%=      5-min Rain = 0
KSC1 270048Z 06004KT 27/05 A2994 RMK A01 T02650053  RH  026%=      5-min Rain = 0
KSC1 270049Z 05004KT 26/05 A2994 RMK A01 T02640054  RH  026%=      5-min Rain = 0
KSC1 270050Z 06004KT 26/06 A2994 RMK A01 T02630056  RH  026%=      5-min Rain = 0
KSC1 270051Z 06003KT 26/06 A2994 RMK A01 T02620056  RH  027%=      5-min Rain = 0
KSC1 270052Z 06004KT 26/06 A2994 RMK A01 T02610056  RH  027%=      5-min Rain = 0
KSC1 270053Z 06003KT 26/06 A2994 RMK A01 T02600059  RH  028%=      5-min Rain = 0
KSC1 270054Z 05003KT 26/06 A2994 RMK A01 T02590059  RH  028%=      5-min Rain = 0
KSC1 270055Z 05003KT 26/06 A2994 RMK A01 T02570060  RH  028%=      5-min Rain = 0
KSC1 270056Z 06002KT 26/06 A2994 RMK A01 T02560060  RH  028%=      5-min Rain = 0
KSC1 270057Z 06003KT 26/06 A2994 RMK A01 T02560060  RH  029%=      5-min Rain = 0
KSC1 270058Z 06003KT 26/06 A2994 RMK A01 T02550061  RH  029%=      5-min Rain = 0
KSC1 270059Z 06003KT 25/06 A2994 RMK A01 T02540062  RH  029%=      5-min Rain = 0
KSC1 270100Z 07003KT 25/06 A2994 RMK A01 T02530061  RH  029%=      5-min Rain = 0
KSC1 270101Z 07003KT 25/06 A2994 RMK A01 T02530060  RH  029%=      5-min Rain = 0
KSC1 270102Z 07003KT 25/06 A2994 RMK A01 T02520060  RH  029%=      5-min Rain = 0
KSC1 270103Z 07003KT 25/06 A2994 RMK A01 T02510061  RH  030%=      5-min Rain = 0
KSC1 270104Z 07003KT 25/06 A2994 RMK A01 T02510064  RH  030%=      5-min Rain = 0
KSC1 270105Z 07003KT 25/06 A2994 RMK A01 T02500064  RH  030%=      5-min Rain = 0
KSC1 270106Z 07003KT 25/07 A2994 RMK A01 T02490067  RH  031%=      5-min Rain = 0
KSC1 270107Z 07003KT 25/07 A2994 RMK A01 T02480069  RH  032%=      5-min Rain = 0
KSC1 270108Z 07003KT 25/07 A2994 RMK A01 T02460067  RH  032%=      5-min Rain = 0
KSC1 270109Z 08003KT 25/07 A2994 RMK A01 T02460068  RH  032%=      5-min Rain = 0
KSC1 270110Z 08003KT 25/07 A2994 RMK A01 T02450071  RH  033%=      5-min Rain = 0
KSC1 270111Z 08003KT 24/07 A2994 RMK A01 T02430070  RH  033%=      5-min Rain = 0
KSC1 270112Z 08003KT 24/07 A2995 RMK A01 T02420070  RH  033%=      5-min Rain = 0
KSC1 270113Z 08003KT 24/07 A2995 RMK A01 T02420066  RH  032%=      5-min Rain = 0
KSC1 270114Z 08003KT 24/07 A2995 RMK A01 T02420067  RH  033%=      5-min Rain = 0
KSC1 270115Z 08003KT 24/07 A2995 RMK A01 T02420070  RH  033%=      5-min Rain = 0
KSC1 270116Z 07003KT 24/07 A2995 RMK A01 T02410074  RH  034%=      5-min Rain = 0
KSC1 270117Z 07003KT 24/08 A2995 RMK A01 T02410075  RH  035%=      5-min Rain = 0
KSC1 270118Z 07003KT 24/07 A2995 RMK A01 T02400073  RH  034%=      5-min Rain = 0
KSC1 270119Z 07004KT 24/07 A2995 RMK A01 T02390074  RH  035%=      5-min Rain = 0
KSC1 270120Z 07004KT 24/08 A2995 RMK A01 T02390076  RH  035%=      5-min Rain = 0
KSC1 270121Z 07004KT 24/08 A2995 RMK A01 T02380079  RH  036%=      5-min Rain = 0
KSC1 270122Z 06004KT 24/08 A2995 RMK A01 T02380082  RH  037%=      5-min Rain = 0
KSC1 270123Z 06004KT 24/08 A2995 RMK A01 T02370083  RH  037%=      5-min Rain = 0
KSC1 270124Z 06004KT 24/09 A2995 RMK A01 T02370086  RH  038%=      5-min Rain = 0
KSC1 270125Z 06003KT 24/09 A2995 RMK A01 T02370086  RH  038%=      5-min Rain = 0
KSC1 270126Z 06003KT 24/09 A2995 RMK A01 T02370087  RH  038%=      5-min Rain = 0
KSC1 270127Z 07003KT 24/09 A2995 RMK A01 T02370085  RH  038%=      5-min Rain = 0
KSC1 270128Z 07003KT 24/09 A2995 RMK A01 T02360085  RH  038%=      5-min Rain = 0
KSC1 270129Z 07002KT 24/09 A2995 RMK A01 T02360086  RH  038%=      5-min Rain = 0
KSC1 270130Z 07002KT 24/09 A2995 RMK A01 T02360086  RH  038%=      5-min Rain = 0
KSC1 270131Z 07002KT 24/09 A2995 RMK A01 T02360085  RH  038%=      5-min Rain = 0
KSC1 270132Z 06002KT 24/09 A2995 RMK A01 T02360086  RH  038%=      5-min Rain = 0
KSC1 270133Z 06002KT 24/09 A2995 RMK A01 T02360087  RH  039%=      5-min Rain = 0
KSC1 270134Z 06002KT 24/08 A2995 RMK A01 T02350084  RH  038%=      5-min Rain = 0
KSC1 270135Z 06002KT 24/09 A2995 RMK A01 T02350085  RH  038%=      5-min Rain = 0
KSC1 270136Z 06002KT 24/08 A2995 RMK A01 T02350082  RH  038%=      5-min Rain = 0
KSC1 270137Z 06002KT 23/08 A2995 RMK A01 T02340082  RH  038%=      5-min Rain = 0
KSC1 270138Z 07002KT 23/08 A2995 RMK A01 T02340083  RH  038%=      5-min Rain = 0
KSC1 270139Z 07002KT 23/09 A2995 RMK A01 T02340085  RH  039%=      5-min Rain = 0
KSC1 270140Z 06002KT 23/09 A2995 RMK A01 T02340087  RH  039%=      5-min Rain = 0
KSC1 270141Z 07002KT 23/09 A2995 RMK A01 T02330092  RH  041%=      5-min Rain = 0
KSC1 270142Z 08001KT 23/10 A2995 RMK A01 T02330096  RH  042%=      5-min Rain = 0
KSC1 270143Z 08001KT 23/10 A2995 RMK A01 T02320102  RH  044%=      5-min Rain = 0
KSC1 270144Z 09001KT 23/12 A2995 RMK A01 T02300119  RH  049%=      5-min Rain = 0
KSC1 270145Z 10001KT 23/12 A2995 RMK A01 T02280121  RH  051%=      5-min Rain = 0
KSC1 270146Z 10002KT 23/12 A2995 RMK A01 T02260117  RH  050%=      5-min Rain = 0
KSC1 270147Z 10002KT 22/11 A2995 RMK A01 T02240112  RH  049%=      5-min Rain = 0
KSC1 270148Z 11002KT 22/11 A2995 RMK A01 T02230110  RH  049%=      5-min Rain = 0
KSC1 270149Z 12002KT 22/11 A2995 RMK A01 T02220105  RH  047%=      5-min Rain = 0
KSC1 270150Z 12003KT 22/10 A2995 RMK A01 T02210097  RH  045%=      5-min Rain = 0
KSC1 270151Z 13003KT 22/10 A2995 RMK A01 T02200102  RH  047%=      5-min Rain = 0
KSC1 270152Z 15003KT 22/10 A2995 RMK A01 T02200103  RH  047%=      5-min Rain = 0
KSC1 270153Z 15004KT 22/10 A2995 RMK A01 T02200103  RH  047%=      5-min Rain = 0
KSC1 270154Z 15004KT 22/10 A2995 RMK A01 T02190104  RH  048%=      5-min Rain = 0
KSC1 270155Z 15005KT 22/10 A2995 RMK A01 T02190103  RH  048%=      5-min Rain = 0
KSC1 270156Z 14005KT 22/10 A2995 RMK A01 T02180099  RH  047%=      5-min Rain = 0
KSC1 270157Z 14005KT 22/10 A2995 RMK A01 T02190097  RH  046%=      5-min Rain = 0
KSC1 270158Z 14005KT 22/10 A2995 RMK A01 T02190095  RH  045%=      5-min Rain = 0
KSC1 270159Z 14005KT 22/09 A2995 RMK A01 T02200094  RH  045%=      5-min Rain = 0
KSC1 270200Z 14005KT 22/09 A2995 RMK A01 T02200093  RH  044%=      5-min Rain = 0
KSC1 270201Z 14004KT 22/09 A2995 RMK A01 T02200092  RH  044%=      5-min Rain = 0
KSC1 270202Z 14003KT 22/09 A2995 RMK A01 T02200091  RH  044%=      5-min Rain = 0
KSC1 270203Z 13003KT 22/09 A2995 RMK A01 T02200093  RH  044%=      5-min Rain = 0
KSC1 270204Z 13003KT 22/09 A2995 RMK A01 T02200094  RH  045%=      5-min Rain = 0
KSC1 270205Z 12003KT 22/09 A2995 RMK A01 T02200093  RH  044%=      5-min Rain = 0
KSC1 270206Z 12003KT 22/09 A2995 RMK A01 T02190090  RH  044%=      5-min Rain = 0
KSC1 270207Z 12003KT 22/09 A2995 RMK A01 T02180090  RH  044%=      5-min Rain = 0
KSC1 270208Z 12003KT 22/09 A2995 RMK A01 T02180090  RH  044%=      5-min Rain = 0
KSC1 270209Z 11003KT 22/09 A2995 RMK A01 T02170090  RH  044%=      5-min Rain = 0
KSC1 270210Z 11003KT 22/09 A2995 RMK A01 T02160090  RH  044%=      5-min Rain = 0
KSC1 270211Z 11003KT 22/09 A2995 RMK A01 T02150094  RH  046%=      5-min Rain = 0
KSC1 270212Z 11003KT 21/10 A2995 RMK A01 T02140103  RH  049%=      5-min Rain = 0
KSC1 270213Z 12003KT 21/11 A2995 RMK A01 T02130107  RH  051%=      5-min Rain = 0
KSC1 270214Z 12002KT 21/10 A2995 RMK A01 T02100096  RH  048%=      5-min Rain = 0
KSC1 270215Z 12002KT 21/09 A2995 RMK A01 T02080088  RH  046%=      5-min Rain = 0
KSC1 270216Z 14002KT 21/09 A2995 RMK A01 T02060092  RH  048%=      5-min Rain = 0
KSC1 270217Z 15002KT 20/10 A2995 RMK A01 T02040099  RH  051%=      5-min Rain = 0
KSC1 270218Z 15003KT 20/10 A2995 RMK A01 T02030096  RH  050%=      5-min Rain = 0
KSC1 270219Z 14003KT 20/09 A2995 RMK A01 T02020094  RH  050%=      5-min Rain = 0
KSC1 270220Z 15003KT 20/09 A2995 RMK A01 T02020093  RH  049%=      5-min Rain = 0
KSC1 270221Z 14004KT 20/09 A2995 RMK A01 T02020092  RH  049%=      5-min Rain = 0
KSC1 270222Z 14003KT 20/09 A2995 RMK A01 T02010094  RH  050%=      5-min Rain = 0
KSC1 270223Z 13004KT 20/10 A2995 RMK A01 T02000096  RH  051%=      5-min Rain = 0
KSC1 270224Z 13003KT 20/10 A2995 RMK A01 T02000101  RH  053%=      5-min Rain = 0
KSC1 270225Z 13004KT 20/11 A2995 RMK A01 T01990105  RH  055%=      5-min Rain = 0
KSC1 270226Z 13004KT 20/11 A2995 RMK A01 T01980108  RH  056%=      5-min Rain = 0
KSC1 270227Z 13004KT 20/10 A2995 RMK A01 T01970099  RH  053%=      5-min Rain = 0
KSC1 270228Z 12004KT 20/10 A2995 RMK A01 T01960096  RH  052%=      5-min Rain = 0
KSC1 270229Z 12003KT 20/10 A2995 RMK A01 T01960101  RH  054%=      5-min Rain = 0
KSC1 270230Z 12003KT 20/10 A2995 RMK A01 T01950102  RH  055%=      5-min Rain = 0
KSC1 270231Z 13003KT 20/10 A2995 RMK A01 T01950101  RH  055%=      5-min Rain = 0
KSC1 270232Z 13003KT 19/10 A2995 RMK A01 T01940098  RH  053%=      5-min Rain = 0
KSC1 270233Z 13003KT 19/09 A2995 RMK A01 T01940094  RH  052%=      5-min Rain = 0
KSC1 270234Z 13002KT 19/09 A2995 RMK A01 T01940093  RH  052%=      5-min Rain = 0
KSC1 270235Z 13002KT 19/09 A2995 RMK A01 T01940094  RH  052%=      5-min Rain = 0
KSC1 270236Z 14002KT 19/10 A2995 RMK A01 T01940097  RH  053%=      5-min Rain = 0
KSC1 270237Z 14002KT 19/10 A2995 RMK A01 T01940098  RH  054%=      5-min Rain = 0
KSC1 270238Z 14002KT 19/11 A2995 RMK A01 T01940109  RH  058%=      5-min Rain = 0
KSC1 270239Z 14002KT 19/11 A2995 RMK A01 T01920111  RH  059%=      5-min Rain = 0
KSC1 270240Z 14003KT 19/10 A2995 RMK A01 T01910101  RH  056%=      5-min Rain = 0
KSC1 270241Z 14003KT 19/10 A2995 RMK A01 T01900100  RH  056%=      5-min Rain = 0
KSC1 270242Z 15003KT 19/10 A2995 RMK A01 T01900102  RH  057%=      5-min Rain = 0
KSC1 270243Z 16004KT 19/10 A2995 RMK A01 T01890098  RH  055%=      5-min Rain = 0
KSC1 270244Z 15004KT 19/10 A2995 RMK A01 T01890101  RH  057%=      5-min Rain = 0
KSC1 270245Z 15005KT 19/10 A2995 RMK A01 T01890100  RH  056%=      5-min Rain = 0
KSC1 270246Z 15005KT 19/10 A2995 RMK A01 T01880095  RH  055%=      5-min Rain = 0
KSC1 270247Z 15006KT 19/09 A2995 RMK A01 T01890093  RH  054%=      5-min Rain = 0
KSC1 270248Z 15006KT 19/09 A2995 RMK A01 T01900091  RH  053%=      5-min Rain = 0
KSC1 270249Z 15006KT 19/09 A2995 RMK A01 T01910090  RH  052%=      5-min Rain = 0
KSC1 270250Z 14006KT 19/09 A2995 RMK A01 T01920088  RH  051%=      5-min Rain = 0
KSC1 270251Z 14006KT 19/09 A2995 RMK A01 T01930086  RH  050%=      5-min Rain = 0
KSC1 270252Z 14006KT 20/09 A2995 RMK A01 T01950085  RH  049%=      5-min Rain = 0
KSC1 270253Z 14006KT 20/08 A2995 RMK A01 T01970084  RH  048%=      5-min Rain = 0
KSC1 270254Z 14006KT 20/08 A2995 RMK A01 T01980083  RH  047%=      5-min Rain = 0
KSC1 270255Z 14006KT 20/08 A2995 RMK A01 T01990083  RH  047%=      5-min Rain = 0
KSC1 270256Z 15006KT 20/08 A2995 RMK A01 T02000082  RH  047%=      5-min Rain = 0
KSC1 270257Z 14006KT 20/08 A2995 RMK A01 T02010082  RH  046%=      5-min Rain = 0
KSC1 270258Z 14006KT 20/08 A2995 RMK A01 T02010082  RH  046%=      5-min Rain = 0
KSC1 270259Z 14005KT 20/08 A2995 RMK A01 T02020081  RH  046%=      5-min Rain = 0
KSC1 270300Z 15005KT 20/08 A2995 RMK A01 T02020080  RH  045%=      5-min Rain = 0
KSC1 270301Z 15005KT 20/08 A2995 RMK A01 T02020081  RH  045%=      5-min Rain = 0
KSC1 270302Z 15005KT 20/08 A2995 RMK A01 T02020081  RH  045%=      5-min Rain = 0
KSC1 270303Z 15006KT 20/08 A2995 RMK A01 T02020080  RH  045%=      5-min Rain = 0
KSC1 270304Z 15006KT 20/08 A2996 RMK A01 T02020080  RH  045%=      5-min Rain = 0
KSC1 270305Z 15005KT 20/08 A2996 RMK A01 T02020080  RH  045%=      5-min Rain = 0
KSC1 270306Z 15005KT 20/08 A2996 RMK A01 T02020079  RH  045%=      5-min Rain = 0
KSC1 270307Z 15005KT 20/08 A2996 RMK A01 T02020078  RH  045%=      5-min Rain = 0
KSC1 270308Z 14005KT 20/08 A2996 RMK A01 T02030079  RH  045%=      5-min Rain = 0
KSC1 270309Z 15005KT 20/08 A2996 RMK A01 T02030079  RH  045%=      5-min Rain = 0
KSC1 270310Z 15004KT 20/08 A2996 RMK A01 T02030077  RH  044%=      5-min Rain = 0
KSC1 270311Z 15004KT 20/08 A2996 RMK A01 T02030077  RH  044%=      5-min Rain = 0
KSC1 270312Z 15004KT 20/08 A2996 RMK A01 T02040076  RH  044%=      5-min Rain = 0
KSC1 270313Z 15004KT 20/08 A2996 RMK A01 T02040077  RH  044%=      5-min Rain = 0
KSC1 270314Z 14005KT 21/08 A2996 RMK A01 T02050077  RH  043%=      5-min Rain = 0
KSC1 270315Z 15005KT 21/08 A2996 RMK A01 T02050076  RH  043%=      5-min Rain = 0
KSC1 270316Z 15005KT 21/08 A2996 RMK A01 T02060076  RH  043%=      5-min Rain = 0
KSC1 270317Z 15006KT 21/08 A2996 RMK A01 T02060076  RH  043%=      5-min Rain = 0
KSC1 270318Z 15005KT 21/08 A2996 RMK A01 T02060077  RH  043%=      5-min Rain = 0
KSC1 270319Z 15006KT 21/08 A2996 RMK A01 T02060076  RH  043%=      5-min Rain = 0
KSC1 270320Z 15005KT 21/08 A2996 RMK A01 T02060076  RH  043%=      5-min Rain = 0
KSC1 270321Z 15005KT 21/07 A2996 RMK A01 T02060074  RH  043%=      5-min Rain = 0
KSC1 270322Z 15006KT 21/08 A2996 RMK A01 T02070075  RH  042%=      5-min Rain = 0
KSC1 270323Z 15006KT 21/07 A2996 RMK A01 T02070074  RH  042%=      5-min Rain = 0
KSC1 270324Z 15006KT 21/07 A2996 RMK A01 T02070074  RH  042%=      5-min Rain = 0
KSC1 270325Z 15006KT 21/08 A2996 RMK A01 T02080075  RH  042%=      5-min Rain = 0
KSC1 270326Z 15006KT 21/08 A2996 RMK A01 T02080075  RH  042%=      5-min Rain = 0
KSC1 270327Z 15005KT 21/08 A2996 RMK A01 T02090075  RH  042%=      5-min Rain = 0
KSC1 270328Z 15005KT 21/07 A2996 RMK A01 T02090074  RH  042%=      5-min Rain = 0
KSC1 270329Z 15005KT 21/07 A2996 RMK A01 T02090073  RH  042%=      5-min Rain = 0
KSC1 270330Z 16004KT 21/07 A2996 RMK A01 T02090074  RH  042%=      5-min Rain = 0
KSC1 270331Z 17004KT 21/07 A2996 RMK A01 T02090074  RH  042%=      5-min Rain = 0
KSC1 270332Z 15006KT 21/07 A2996 RMK A01 T02080074  RH  042%=      5-min Rain = 0
KSC1 270333Z 16007KT 21/07 A2996 RMK A01 T02080074  RH  042%=      5-min Rain = 0
KSC1 270334Z 16006KT 21/07 A2996 RMK A01 T02070074  RH  042%=      5-min Rain = 0
KSC1 270335Z 16006KT 21/08 A2996 RMK A01 T02080075  RH  042%=      5-min Rain = 0
KSC1 270336Z 17006KT 21/08 A2996 RMK A01 T02070076  RH  043%=      5-min Rain = 0
KSC1 270337Z 17006KT 21/08 A2996 RMK A01 T02080076  RH  042%=      5-min Rain = 0
KSC1 270338Z 17006KT 21/08 A2996 RMK A01 T02080075  RH  042%=      5-min Rain = 0
KSC1 270339Z 17006KT 21/07 A2996 RMK A01 T02080074  RH  042%=      5-min Rain = 0
KSC1 270340Z 16007KT 21/07 A2996 RMK A01 T02090073  RH  041%=      5-min Rain = 0
KSC1 270341Z 16006KT 21/07 A2996 RMK A01 T02100074  RH  041%=      5-min Rain = 0
KSC1 270342Z 16006KT 21/07 A2996 RMK A01 T02110074  RH  041%=      5-min Rain = 0
KSC1 270343Z 16007KT 21/07 A2996 RMK A01 T02110074  RH  041%=      5-min Rain = 0
KSC1 270344Z 16007KT 21/07 A2996 RMK A01 T02110074  RH  041%=      5-min Rain = 0
KSC1 270345Z 16007KT 21/07 A2996 RMK A01 T02110074  RH  041%=      5-min Rain = 0
KSC1 270346Z 16006KT 21/07 A2996 RMK A01 T02110074  RH  041%=      5-min Rain = 0
KSC1 270347Z 16006KT 21/07 A2996 RMK A01 T02110074  RH  041%=      5-min Rain = 0
KSC1 270348Z 16007KT 21/07 A2996 RMK A01 T02110074  RH  041%=      5-min Rain = 0
KSC1 270349Z 16006KT 21/07 A2996 RMK A01 T02110074  RH  041%=      5-min Rain = 0
KSC1 270350Z 16006KT 21/08 A2996 RMK A01 T02110075  RH  041%=      5-min Rain = 0
KSC1 270351Z 16006KT 21/08 A2996 RMK A01 T02110075  RH  041%=      5-min Rain = 0
KSC1 270352Z 16006KT 21/08 A2996 RMK A01 T02110075  RH  041%=      5-min Rain = 0
KSC1 270353Z 16006KT 21/08 A2996 RMK A01 T02110075  RH  042%=      5-min Rain = 0
KSC1 270354Z 16006KT 21/08 A2996 RMK A01 T02110076  RH  042%=      5-min Rain = 0
KSC1 270355Z 16006KT 21/08 A2996 RMK A01 T02100076  RH  042%=      5-min Rain = 0
KSC1 270356Z 16006KT 21/08 A2996 RMK A01 T02100076  RH  042%=      5-min Rain = 0
KSC1 270357Z 17006KT 21/08 A2996 RMK A01 T02100076  RH  042%=      5-min Rain = 0
KSC1 270358Z 17007KT 21/08 A2996 RMK A01 T02090077  RH  042%=      5-min Rain = 0
KSC1 270359Z 16006KT 21/08 A2996 RMK A01 T02080076  RH  042%=      5-min Rain = 0
KSC1 270400Z 16006KT 21/08 A2996 RMK A01 T02080076  RH  043%=      5-min Rain = 0
KSC1 270401Z 16005KT 21/08 A2996 RMK A01 T02080076  RH  043%=      5-min Rain = 0
KSC1 270402Z 16007KT 21/08 A2996 RMK A01 T02070075  RH  042%=      5-min Rain = 0
KSC1 270403Z 16006KT 21/08 A2996 RMK A01 T02080075  RH  042%=      5-min Rain = 0
KSC1 270404Z 16007KT 21/07 A2996 RMK A01 T02080074  RH  042%=      5-min Rain = 0
KSC1 270405Z 16006KT 21/08 A2996 RMK A01 T02090075  RH  042%=      5-min Rain = 0
KSC1 270406Z 16006KT 21/08 A2996 RMK A01 T02100076  RH  042%=      5-min Rain = 0
KSC1 270407Z 16005KT 21/08 A2996 RMK A01 T02090075  RH  042%=      5-min Rain = 0
KSC1 270408Z 16006KT 21/08 A2996 RMK A01 T02090075  RH  042%=      5-min Rain = 0
KSC1 270409Z 16006KT 21/08 A2996 RMK A01 T02080075  RH  042%=      5-min Rain = 0
KSC1 270410Z 16006KT 21/08 A2996 RMK A01 T02070075  RH  042%=      5-min Rain = 0
KSC1 270411Z 16006KT 21/08 A2996 RMK A01 T02070075  RH  042%=      5-min Rain = 0
KSC1 270412Z 16006KT 21/07 A2996 RMK A01 T02060074  RH  042%=      5-min Rain = 0
KSC1 270413Z 16006KT 21/08 A2996 RMK A01 T02070075  RH  042%=      5-min Rain = 0
KSC1 270414Z 16006KT 21/08 A2996 RMK A01 T02060075  RH  043%=      5-min Rain = 0
KSC1 270415Z 16006KT 21/08 A2996 RMK A01 T02060075  RH  043%=      5-min Rain = 0
KSC1 270416Z 16006KT 21/07 A2996 RMK A01 T02050074  RH  043%=      5-min Rain = 0
KSC1 270417Z 15005KT 21/08 A2996 RMK A01 T02050075  RH  043%=      5-min Rain = 0
KSC1 270418Z 16006KT 21/07 A2996 RMK A01 T02050074  RH  043%=      5-min Rain = 0
KSC1 270419Z 16006KT 21/07 A2996 RMK A01 T02050074  RH  043%=      5-min Rain = 0
KSC1 270420Z 16006KT 21/07 A2996 RMK A01 T02050074  RH  043%=      5-min Rain = 0
KSC1 270421Z 16006KT 21/07 A2996 RMK A01 T02050074  RH  043%=      5-min Rain = 0
KSC1 270422Z 16006KT 21/07 A2996 RMK A01 T02050074  RH  043%=      5-min Rain = 0
KSC1 270423Z 16006KT 20/07 A2996 RMK A01 T02040074  RH  043%=      5-min Rain = 0
KSC1 270424Z 16006KT 20/08 A2996 RMK A01 T02040075  RH  043%=      5-min Rain = 0
KSC1 270425Z 16005KT 20/08 A2996 RMK A01 T02030075  RH  044%=      5-min Rain = 0
KSC1 270426Z 16005KT 20/08 A2996 RMK A01 T02020075  RH  044%=      5-min Rain = 0
KSC1 270427Z 16005KT 20/07 A2996 RMK A01 T02020074  RH  044%=      5-min Rain = 0
KSC1 270428Z 16005KT 20/07 A2996 RMK A01 T02020074  RH  044%=      5-min Rain = 0
KSC1 270429Z 16006KT 20/08 A2996 RMK A01 T02020075  RH  044%=      5-min Rain = 0
KSC1 270430Z 15006KT 20/07 A2996 RMK A01 T02010074  RH  044%=      5-min Rain = 0
KSC1 270431Z 15005KT 20/07 A2996 RMK A01 T02010074  RH  044%=      5-min Rain = 0
KSC1 270432Z 16006KT 20/07 A2996 RMK A01 T02010073  RH  043%=      5-min Rain = 0
KSC1 270433Z 16006KT 20/07 A2996 RMK A01 T02010073  RH  043%=      5-min Rain = 0
KSC1 270434Z 16007KT 20/07 A2996 RMK A01 T02010072  RH  043%=      5-min Rain = 0
KSC1 270435Z 16006KT 20/07 A2996 RMK A01 T02020072  RH  043%=      5-min Rain = 0
KSC1 270436Z 16007KT 20/07 A2996 RMK A01 T02030072  RH  043%=      5-min Rain = 0
KSC1 270437Z 16006KT 20/07 A2996 RMK A01 T02030072  RH  043%=      5-min Rain = 0
KSC1 270438Z 16006KT 20/07 A2996 RMK A01 T02030073  RH  043%=      5-min Rain = 0
KSC1 270439Z 16006KT 20/07 A2996 RMK A01 T02030073  RH  043%=      5-min Rain = 0
KSC1 270440Z 16006KT 20/07 A2996 RMK A01 T02030073  RH  043%=      5-min Rain = 0
KSC1 270441Z 16006KT 20/07 A2996 RMK A01 T02020073  RH  043%=      5-min Rain = 0
KSC1 270442Z 16006KT 20/07 A2996 RMK A01 T02030073  RH  043%=      5-min Rain = 0
KSC1 270443Z 16005KT 20/07 A2996 RMK A01 T02020073  RH  043%=      5-min Rain = 0
KSC1 270444Z 16006KT 20/07 A2996 RMK A01 T02020072  RH  043%=      5-min Rain = 0
KSC1 270445Z 16005KT 20/07 A2996 RMK A01 T02010072  RH  043%=      5-min Rain = 0
KSC1 270446Z 16005KT 20/07 A2996 RMK A01 T02010072  RH  043%=      5-min Rain = 0
KSC1 270447Z 16006KT 20/07 A2996 RMK A01 T02010072  RH  043%=      5-min Rain = 0
KSC1 270448Z 16006KT 20/07 A2996 RMK A01 T02000072  RH  043%=      5-min Rain = 0
KSC1 270449Z 16006KT 20/07 A2996 RMK A01 T02010072  RH  043%=      5-min Rain = 0
KSC1 270450Z 16006KT 20/07 A2996 RMK A01 T02000073  RH  043%=      5-min Rain = 0
KSC1 270451Z 16005KT 20/07 A2996 RMK A01 T02000072  RH  043%=      5-min Rain = 0
KSC1 270452Z 15005KT 20/07 A2996 RMK A01 T02000072  RH  043%=      5-min Rain = 0
KSC1 270453Z 16005KT 20/07 A2996 RMK A01 T02000072  RH  043%=      5-min Rain = 0
KSC1 270454Z 15005KT 20/07 A2996 RMK A01 T02000071  RH  043%=      5-min Rain = 0
KSC1 270455Z 16005KT 20/07 A2996 RMK A01 T02010072  RH  043%=      5-min Rain = 0
KSC1 270456Z 16005KT 20/07 A2996 RMK A01 T02000072  RH  043%=      5-min Rain = 0
KSC1 270457Z 16005KT 20/07 A2996 RMK A01 T02000071  RH  043%=      5-min Rain = 0
KSC1 270458Z 16006KT 20/07 A2996 RMK A01 T02000071  RH  043%=      5-min Rain = 0
KSC1 270459Z 16005KT 20/07 A2996 RMK A01 T01990071  RH  043%=      5-min Rain = 0

Page generated in 0.1348 seconds.